Observation data for Stamford on 02/11/2018      Previous  Date  Next       Current Mesonet Observations  Soil Data  Daily Summary Page  Observations in Plain Language
KST2 110600Z 02020KT M04/M11 A3007 RMK A01 T10441112  RH  059%=      5-min Rain = 0
KST2 110601Z 02020KT M04/M11 A3007 RMK A01 T10441112  RH  059%=      5-min Rain = 0
KST2 110602Z 02018KT M05/M11 A3007 RMK A01 T10451112  RH  059%=      5-min Rain = 0
KST2 110603Z 02018KT M05/M11 A3007 RMK A01 T10451112  RH  059%=      5-min Rain = 0
KST2 110604Z 02016KT M05/M11 A3007 RMK A01 T10451112  RH  059%=      5-min Rain = 0
KST2 110605Z 02019KT M05/M11 A3007 RMK A01 T10451112  RH  060%=      5-min Rain = 0
KST2 110606Z 02019KT M05/M11 A3007 RMK A01 T10461112  RH  060%=      5-min Rain = 0
KST2 110607Z 02016KT M05/M11 A3007 RMK A01 T10461112  RH  060%=      5-min Rain = 0
KST2 110608Z 02015KT M05/M11 A3007 RMK A01 T10461113  RH  060%=      5-min Rain = 0
KST2 110609Z 02015KT M05/M11 A3007 RMK A01 T10461113  RH  060%=      5-min Rain = 0
KST2 110610Z 02016KT M05/M11 A3007 RMK A01 T10461112  RH  060%=      5-min Rain = 0
KST2 110611Z 02014KT M05/M11 A3007 RMK A01 T10471113  RH  060%=      5-min Rain = 0
KST2 110612Z 02013KT M05/M11 A3007 RMK A01 T10471113  RH  060%=      5-min Rain = 0
KST2 110613Z 02014KT M05/M11 A3007 RMK A01 T10471113  RH  060%=      5-min Rain = 0
KST2 110614Z 02013KT M05/M11 A3007 RMK A01 T10471113  RH  060%=      5-min Rain = 0
KST2 110615Z 02013KT M05/M11 A3007 RMK A01 T10471113  RH  060%=      5-min Rain = 0
KST2 110616Z 02013KT M05/M11 A3007 RMK A01 T10481113  RH  060%=      5-min Rain = 0
KST2 110617Z 01013KT M05/M11 A3007 RMK A01 T10481113  RH  060%=      5-min Rain = 0
KST2 110618Z 01012KT M05/M11 A3007 RMK A01 T10481114  RH  060%=      5-min Rain = 0
KST2 110619Z 02013KT M05/M11 A3007 RMK A01 T10481113  RH  060%=      5-min Rain = 0
KST2 110620Z 02010KT M05/M11 A3007 RMK A01 T10481113  RH  060%=      5-min Rain = 0
KST2 110621Z 01011KT M05/M11 A3007 RMK A01 T10491114  RH  060%=      5-min Rain = 0
KST2 110622Z 02012KT M05/M11 A3007 RMK A01 T10491114  RH  060%=      5-min Rain = 0
KST2 110623Z 02013KT M05/M11 A3007 RMK A01 T10491114  RH  060%=      5-min Rain = 0
KST2 110624Z 02011KT M05/M11 A3007 RMK A01 T10491114  RH  060%=      5-min Rain = 0
KST2 110625Z 02011KT M05/M11 A3007 RMK A01 T10491114  RH  060%=      5-min Rain = 0
KST2 110626Z 02012KT M05/M11 A3007 RMK A01 T10491114  RH  060%=      5-min Rain = 0
KST2 110627Z 02013KT M05/M11 A3007 RMK A01 T10491114  RH  060%=      5-min Rain = 0
KST2 110628Z 02012KT M05/M11 A3008 RMK A01 T10491114  RH  060%=      5-min Rain = 0
KST2 110629Z 02012KT M05/M12 A3008 RMK A01 T10501115  RH  060%=      5-min Rain = 0
KST2 110630Z 02014KT M05/M12 A3008 RMK A01 T10501115  RH  060%=      5-min Rain = 0
KST2 110631Z 02013KT M05/M12 A3008 RMK A01 T10501115  RH  060%=      5-min Rain = 0
KST2 110632Z 02013KT M05/M12 A3008 RMK A01 T10501115  RH  060%=      5-min Rain = 0
KST2 110633Z 02012KT M05/M12 A3008 RMK A01 T10501116  RH  060%=      5-min Rain = 0
KST2 110634Z 02012KT M05/M12 A3008 RMK A01 T10501116  RH  060%=      5-min Rain = 0
KST2 110635Z 02012KT M05/M12 A3008 RMK A01 T10501116  RH  060%=      5-min Rain = 0
KST2 110636Z 02012KT M05/M12 A3008 RMK A01 T10511116  RH  060%=      5-min Rain = 0
KST2 110637Z 02013KT M05/M12 A3008 RMK A01 T10511116  RH  060%=      5-min Rain = 0
KST2 110638Z 02011KT M05/M12 A3008 RMK A01 T10511116  RH  060%=      5-min Rain = 0
KST2 110639Z 03012KT M05/M12 A3008 RMK A01 T10511116  RH  060%=      5-min Rain = 0
KST2 110640Z 02015KT M05/M12 A3008 RMK A01 T10521117  RH  060%=      5-min Rain = 0
KST2 110641Z 02013KT M05/M12 A3008 RMK A01 T10521117  RH  060%=      5-min Rain = 0
KST2 110642Z 02012KT M05/M12 A3008 RMK A01 T10521117  RH  060%=      5-min Rain = 0
KST2 110643Z 02011KT M05/M12 A3008 RMK A01 T10521117  RH  060%=      5-min Rain = 0
KST2 110644Z 02011KT M05/M12 A3008 RMK A01 T10521117  RH  060%=      5-min Rain = 0
KST2 110645Z 02012KT M05/M12 A3008 RMK A01 T10521117  RH  060%=      5-min Rain = 0
KST2 110646Z 02013KT M05/M12 A3008 RMK A01 T10521117  RH  060%=      5-min Rain = 0
KST2 110647Z 02013KT M05/M12 A3008 RMK A01 T10521117  RH  060%=      5-min Rain = 0
KST2 110648Z 02014KT M05/M12 A3008 RMK A01 T10531118  RH  060%=      5-min Rain = 0
KST2 110649Z 02012KT M05/M12 A3008 RMK A01 T10531118  RH  060%=      5-min Rain = 0
KST2 110650Z 02013KT M05/M12 A3008 RMK A01 T10521117  RH  060%=      5-min Rain = 0
KST2 110651Z 02011KT M05/M12 A3008 RMK A01 T10531118  RH  060%=      5-min Rain = 0
KST2 110652Z 02011KT M05/M12 A3008 RMK A01 T10531118  RH  060%=      5-min Rain = 0
KST2 110653Z 02013KT M05/M12 A3008 RMK A01 T10531118  RH  060%=      5-min Rain = 0
KST2 110654Z 02012KT M05/M12 A3008 RMK A01 T10531117  RH  061%=      5-min Rain = 0
KST2 110655Z 02010KT M05/M12 A3008 RMK A01 T10531117  RH  061%=      5-min Rain = 0
KST2 110656Z 02010KT M05/M12 A3008 RMK A01 T10541118  RH  061%=      5-min Rain = 0
KST2 110657Z 01012KT M05/M12 A3008 RMK A01 T10531118  RH  061%=      5-min Rain = 0
KST2 110658Z 02011KT M05/M12 A3008 RMK A01 T10531118  RH  061%=      5-min Rain = 0
KST2 110659Z 02012KT M05/M12 A3008 RMK A01 T10541118  RH  061%=      5-min Rain = 0
KST2 110700Z 02011KT M05/M12 A3008 RMK A01 T10541118  RH  060%=      5-min Rain = 0
KST2 110701Z 02010KT M05/M12 A3008 RMK A01 T10531118  RH  061%=      5-min Rain = 0
KST2 110702Z 01012KT M05/M12 A3008 RMK A01 T10531118  RH  061%=      5-min Rain = 0
KST2 110703Z 02010KT M05/M12 A3008 RMK A01 T10541118  RH  060%=      5-min Rain = 0
KST2 110704Z 01008KT M05/M12 A3008 RMK A01 T10541118  RH  060%=      5-min Rain = 0
KST2 110705Z 01010KT M05/M12 A3008 RMK A01 T10541118  RH  061%=      5-min Rain = 0
KST2 110706Z 01009KT M05/M12 A3008 RMK A01 T10541118  RH  061%=      5-min Rain = 0
KST2 110707Z 01010KT M05/M12 A3008 RMK A01 T10541118  RH  061%=      5-min Rain = 0
KST2 110708Z 02008KT M05/M12 A3008 RMK A01 T10541118  RH  061%=      5-min Rain = 0
KST2 110709Z 01010KT M05/M12 A3008 RMK A01 T10541118  RH  061%=      5-min Rain = 0
KST2 110710Z 01011KT M05/M12 A3009 RMK A01 T10541118  RH  061%=      5-min Rain = 0
KST2 110711Z 01011KT M05/M12 A3009 RMK A01 T10541118  RH  061%=      5-min Rain = 0
KST2 110712Z 01010KT M05/M12 A3009 RMK A01 T10541118  RH  061%=      5-min Rain = 0
KST2 110713Z 01010KT M05/M12 A3009 RMK A01 T10541118  RH  061%=      5-min Rain = 0
KST2 110714Z 01010KT M05/M12 A3009 RMK A01 T10531118  RH  061%=      5-min Rain = 0
KST2 110715Z 01009KT M05/M12 A3009 RMK A01 T10531117  RH  061%=      5-min Rain = 0
KST2 110716Z 01009KT M05/M12 A3009 RMK A01 T10521116  RH  061%=      5-min Rain = 0
KST2 110717Z 01010KT M05/M12 A3009 RMK A01 T10521117  RH  060%=      5-min Rain = 0
KST2 110718Z 01011KT M05/M12 A3009 RMK A01 T10521117  RH  060%=      5-min Rain = 0
KST2 110719Z 01010KT M05/M12 A3008 RMK A01 T10521117  RH  060%=      5-min Rain = 0
KST2 110720Z 00011KT M05/M12 A3009 RMK A01 T10511117  RH  060%=      5-min Rain = 0
KST2 110721Z 01013KT M05/M12 A3009 RMK A01 T10511117  RH  060%=      5-min Rain = 0
KST2 110722Z 01012KT M05/M12 A3008 RMK A01 T10511117  RH  060%=      5-min Rain = 0
KST2 110723Z 01013KT M05/M12 A3008 RMK A01 T10511117  RH  060%=      5-min Rain = 0
KST2 110724Z 01013KT M05/M12 A3008 RMK A01 T10511117  RH  060%=      5-min Rain = 0
KST2 110725Z 01013KT M05/M12 A3008 RMK A01 T10511117  RH  060%=      5-min Rain = 0
KST2 110726Z 01013KT M05/M12 A3008 RMK A01 T10511118  RH  059%=      5-min Rain = 0
KST2 110727Z 01011KT M05/M12 A3008 RMK A01 T10511118  RH  060%=      5-min Rain = 0
KST2 110728Z 01012KT M05/M12 A3008 RMK A01 T10511117  RH  060%=      5-min Rain = 0
KST2 110729Z 01010KT M05/M12 A3008 RMK A01 T10501117  RH  059%=      5-min Rain = 0
KST2 110730Z 01011KT M05/M12 A3008 RMK A01 T10501117  RH  060%=      5-min Rain = 0
KST2 110731Z 01010KT M05/M12 A3009 RMK A01 T10501117  RH  059%=      5-min Rain = 0
KST2 110732Z 01011KT M05/M12 A3009 RMK A01 T10501117  RH  059%=      5-min Rain = 0
KST2 110733Z 01012KT M05/M12 A3009 RMK A01 T10501117  RH  059%=      5-min Rain = 0
KST2 110734Z 01011KT M05/M12 A3009 RMK A01 T10501117  RH  059%=      5-min Rain = 0
KST2 110735Z 01011KT M05/M12 A3009 RMK A01 T10501117  RH  059%=      5-min Rain = 0
KST2 110736Z 00011KT M05/M12 A3009 RMK A01 T10501117  RH  059%=      5-min Rain = 0
KST2 110737Z 01011KT M05/M12 A3009 RMK A01 T10491117  RH  059%=      5-min Rain = 0
KST2 110738Z 01012KT M05/M12 A3009 RMK A01 T10491117  RH  059%=      5-min Rain = 0
KST2 110739Z 00010KT M05/M12 A3009 RMK A01 T10491117  RH  059%=      5-min Rain = 0
KST2 110740Z 01012KT M05/M12 A3009 RMK A01 T10491117  RH  059%=      5-min Rain = 0
KST2 110741Z 01011KT M05/M12 A3009 RMK A01 T10501118  RH  059%=      5-min Rain = 0
KST2 110742Z 01011KT M05/M12 A3009 RMK A01 T10501117  RH  059%=      5-min Rain = 0
KST2 110743Z 01011KT M05/M12 A3009 RMK A01 T10501118  RH  059%=      5-min Rain = 0
KST2 110744Z 01011KT M05/M12 A3009 RMK A01 T10501118  RH  059%=      5-min Rain = 0
KST2 110745Z 01011KT M05/M12 A3009 RMK A01 T10501118  RH  059%=      5-min Rain = 0
KST2 110746Z 01011KT M05/M12 A3009 RMK A01 T10501117  RH  059%=      5-min Rain = 0
KST2 110747Z 01010KT M05/M12 A3009 RMK A01 T10501118  RH  059%=      5-min Rain = 0
KST2 110748Z 01010KT M05/M12 A3009 RMK A01 T10501117  RH  059%=      5-min Rain = 0
KST2 110749Z 01011KT M05/M12 A3009 RMK A01 T10491116  RH  059%=      5-min Rain = 0
KST2 110750Z 02013KT M05/M12 A3009 RMK A01 T10481117  RH  059%=      5-min Rain = 0
KST2 110751Z 02013KT M05/M12 A301 RMK A01 T10491117  RH  059%=      5-min Rain = 0
KST2 110752Z 02012KT M05/M12 A301 RMK A01 T10491118  RH  059%=      5-min Rain = 0
KST2 110753Z 01012KT M05/M12 A301 RMK A01 T10491118  RH  059%=      5-min Rain = 0
KST2 110754Z 01012KT M05/M12 A301 RMK A01 T10491118  RH  059%=      5-min Rain = 0
KST2 110755Z 02013KT M05/M12 A301 RMK A01 T10491118  RH  059%=      5-min Rain = 0
KST2 110756Z 01013KT M05/M12 A301 RMK A01 T10491118  RH  059%=      5-min Rain = 0
KST2 110757Z 00012KT M05/M12 A301 RMK A01 T10501118  RH  059%=      5-min Rain = 0
KST2 110758Z 01011KT M05/M12 A301 RMK A01 T10491118  RH  059%=      5-min Rain = 0
KST2 110759Z 01012KT M05/M12 A301 RMK A01 T10491118  RH  058%=      5-min Rain = 0
KST2 110800Z 00013KT M05/M12 A301 RMK A01 T10491118  RH  058%=      5-min Rain = 0
KST2 110801Z 00016KT M05/M12 A301 RMK A01 T10481118  RH  058%=      5-min Rain = 0
KST2 110802Z 00016KT M05/M12 A301 RMK A01 T10481119  RH  058%=      5-min Rain = 0
KST2 110803Z 36017KT M05/M12 A301 RMK A01 T10491119  RH  058%=      5-min Rain = 0
KST2 110804Z 01017KT M05/M12 A301 RMK A01 T10491119  RH  058%=      5-min Rain = 0
KST2 110805Z 00016KT M05/M12 A301 RMK A01 T10501120  RH  058%=      5-min Rain = 0
KST2 110806Z 00017KT M05/M12 A301 RMK A01 T10491119  RH  058%=      5-min Rain = 0
KST2 110807Z 00015KT M05/M12 A301 RMK A01 T10491119  RH  058%=      5-min Rain = 0
KST2 110808Z 36016KT M05/M12 A301 RMK A01 T10491119  RH  058%=      5-min Rain = 0
KST2 110809Z 00018KT M05/M12 A301 RMK A01 T10501120  RH  058%=      5-min Rain = 0
KST2 110810Z 00018KT M05/M12 A301 RMK A01 T10501120  RH  058%=      5-min Rain = 0
KST2 110811Z 01018KT M05/M12 A301 RMK A01 T10501120  RH  058%=      5-min Rain = 0
KST2 110812Z 36018KT M05/M12 A301 RMK A01 T10501120  RH  058%=      5-min Rain = 0
KST2 110813Z 00016KT M05/M12 A301 RMK A01 T10511120  RH  058%=      5-min Rain = 0
KST2 110814Z 01016KT M05/M12 A301 RMK A01 T10511120  RH  058%=      5-min Rain = 0
KST2 110815Z 01017KT M05/M12 A301 RMK A01 T10501120  RH  058%=      5-min Rain = 0
KST2 110816Z 36016KT M05/M12 A301 RMK A01 T10501120  RH  058%=      5-min Rain = 0
KST2 110817Z 35018KT M05/M12 A301 RMK A01 T10501119  RH  058%=      5-min Rain = 0
KST2 110818Z 00018KT M05/M12 A301 RMK A01 T10501120  RH  058%=      5-min Rain = 0
KST2 110819Z 01018KT M05/M12 A301 RMK A01 T10511120  RH  058%=      5-min Rain = 0
KST2 110820Z 01017KT M05/M12 A301 RMK A01 T10511120  RH  058%=      5-min Rain = 0
KST2 110821Z 01017KT M05/M12 A301 RMK A01 T10511120  RH  059%=      5-min Rain = 0
KST2 110822Z 01016KT M05/M12 A301 RMK A01 T10511120  RH  059%=      5-min Rain = 0
KST2 110823Z 01016KT M05/M12 A301 RMK A01 T10511120  RH  059%=      5-min Rain = 0
KST2 110824Z 01014KT M05/M12 A301 RMK A01 T10511120  RH  059%=      5-min Rain = 0
KST2 110825Z 01014KT M05/M12 A301 RMK A01 T10511119  RH  059%=      5-min Rain = 0
KST2 110826Z 00015KT M05/M12 A301 RMK A01 T10501119  RH  059%=      5-min Rain = 0
KST2 110827Z 00016KT M05/M12 A301 RMK A01 T10501119  RH  058%=      5-min Rain = 0
KST2 110828Z 01016KT M05/M12 A301 RMK A01 T10511120  RH  058%=      5-min Rain = 0
KST2 110829Z 01016KT M05/M12 A301 RMK A01 T10511120  RH  059%=      5-min Rain = 0
KST2 110830Z 00015KT M05/M12 A301 RMK A01 T10511119  RH  059%=      5-min Rain = 0
KST2 110831Z 00016KT M05/M12 A301 RMK A01 T10511119  RH  059%=      5-min Rain = 0
KST2 110832Z 01016KT M05/M12 A301 RMK A01 T10511119  RH  059%=      5-min Rain = 0
KST2 110833Z 01015KT M05/M12 A301 RMK A01 T10511120  RH  059%=      5-min Rain = 0
KST2 110834Z 01016KT M05/M12 A301 RMK A01 T10511119  RH  059%=      5-min Rain = 0
KST2 110835Z 01017KT M05/M12 A301 RMK A01 T10501119  RH  059%=      5-min Rain = 0
KST2 110836Z 01016KT M05/M12 A301 RMK A01 T10501119  RH  058%=      5-min Rain = 0
KST2 110837Z 01019KT M05/M12 A301 RMK A01 T10501119  RH  058%=      5-min Rain = 0
KST2 110838Z 00017KT M05/M12 A301 RMK A01 T10511120  RH  058%=      5-min Rain = 0
KST2 110839Z 00017KT M05/M12 A301 RMK A01 T10511119  RH  058%=      5-min Rain = 0
KST2 110840Z 36018KT M05/M12 A301 RMK A01 T10511120  RH  059%=      5-min Rain = 0
KST2 110841Z 36017KT M05/M12 A301 RMK A01 T10501119  RH  058%=      5-min Rain = 0
KST2 110842Z 00017KT M05/M12 A301 RMK A01 T10501120  RH  058%=      5-min Rain = 0
KST2 110843Z 36014KT M05/M12 A301 RMK A01 T10501119  RH  058%=      5-min Rain = 0
KST2 110844Z 00016KT M05/M12 A301 RMK A01 T10501119  RH  058%=      5-min Rain = 0
KST2 110845Z 01016KT M05/M12 A301 RMK A01 T10501119  RH  058%=      5-min Rain = 0
KST2 110846Z 00015KT M05/M12 A301 RMK A01 T10501120  RH  058%=      5-min Rain = 0
KST2 110847Z 00016KT M05/M12 A301 RMK A01 T10501119  RH  058%=      5-min Rain = 0
KST2 110848Z 36016KT M05/M12 A301 RMK A01 T10501119  RH  058%=      5-min Rain = 0
KST2 110849Z 00016KT M05/M12 A301 RMK A01 T10501119  RH  058%=      5-min Rain = 0
KST2 110850Z 36015KT M05/M12 A301 RMK A01 T10501119  RH  058%=      5-min Rain = 0
KST2 110851Z 36017KT M05/M12 A301 RMK A01 T10501119  RH  058%=      5-min Rain = 0
KST2 110852Z 01016KT M05/M12 A301 RMK A01 T10501119  RH  058%=      5-min Rain = 0
KST2 110853Z 36015KT M05/M12 A301 RMK A01 T10501119  RH  058%=      5-min Rain = 0
KST2 110854Z 00014KT M05/M12 A301 RMK A01 T10501120  RH  058%=      5-min Rain = 0
KST2 110855Z 35014KT M05/M12 A301 RMK A01 T10491119  RH  058%=      5-min Rain = 0
KST2 110856Z 00018KT M05/M12 A301 RMK A01 T10491119  RH  058%=      5-min Rain = 0
KST2 110857Z 36015KT M05/M12 A301 RMK A01 T10501120  RH  058%=      5-min Rain = 0
KST2 110858Z 35018KT M05/M12 A3011 RMK A01 T10501119  RH  058%=      5-min Rain = 0
KST2 110859Z 35018KT M05/M12 A3011 RMK A01 T10501120  RH  058%=      5-min Rain = 0
KST2 110900Z 36017KT M05/M12 A3011 RMK A01 T10501120  RH  058%=      5-min Rain = 0
KST2 110901Z 35016G21KT M05/M12 A3011 RMK A01 T10501120  RH  058%=      5-min Rain = 0
KST2 110902Z 36017KT M05/M12 A3011 RMK A01 T10501120  RH  058%=      5-min Rain = 0
KST2 110903Z 36018KT M05/M12 A3011 RMK A01 T10501119  RH  058%=      5-min Rain = 0
KST2 110904Z 36018KT M05/M12 A3011 RMK A01 T10501120  RH  058%=      5-min Rain = 0
KST2 110905Z 00018KT M05/M12 A3011 RMK A01 T10501120  RH  058%=      5-min Rain = 0
KST2 110906Z 00016KT M05/M12 A3011 RMK A01 T10501120  RH  058%=      5-min Rain = 0
KST2 110907Z 36016KT M05/M12 A3011 RMK A01 T10501120  RH  058%=      5-min Rain = 0
KST2 110908Z 35016KT M05/M12 A3011 RMK A01 T10501120  RH  058%=      5-min Rain = 0
KST2 110909Z 36017KT M05/M12 A3011 RMK A01 T10501120  RH  058%=      5-min Rain = 0
KST2 110910Z 00017KT M05/M12 A3011 RMK A01 T10501120  RH  058%=      5-min Rain = 0
KST2 110911Z 00016KT M05/M12 A3011 RMK A01 T10501120  RH  058%=      5-min Rain = 0
KST2 110912Z 00016KT M05/M12 A3011 RMK A01 T10501120  RH  058%=      5-min Rain = 0
KST2 110913Z 00016KT M05/M12 A3011 RMK A01 T10501120  RH  058%=      5-min Rain = 0
KST2 110914Z 36014KT M05/M12 A3012 RMK A01 T10501120  RH  058%=      5-min Rain = 0
KST2 110915Z 36015KT M05/M12 A3012 RMK A01 T10501120  RH  058%=      5-min Rain = 0
KST2 110916Z 36015KT M05/M12 A3011 RMK A01 T10501120  RH  058%=      5-min Rain = 0
KST2 110917Z 35015KT M05/M12 A3011 RMK A01 T10491120  RH  058%=      5-min Rain = 0
KST2 110918Z 35014KT M05/M12 A3011 RMK A01 T10501120  RH  058%=      5-min Rain = 0
KST2 110919Z 35014KT M05/M12 A3011 RMK A01 T10501120  RH  058%=      5-min Rain = 0
KST2 110920Z 36012KT M05/M12 A3012 RMK A01 T10501119  RH  058%=      5-min Rain = 0
KST2 110921Z 35015KT M05/M12 A3011 RMK A01 T10491120  RH  058%=      5-min Rain = 0
KST2 110922Z 00015KT M05/M12 A3012 RMK A01 T10501120  RH  058%=      5-min Rain = 0
KST2 110923Z 36014KT M05/M12 A3012 RMK A01 T10491120  RH  058%=      5-min Rain = 0
KST2 110924Z 35014KT M05/M12 A3012 RMK A01 T10491119  RH  058%=      5-min Rain = 0
KST2 110925Z 36016KT M05/M12 A3012 RMK A01 T10491120  RH  058%=      5-min Rain = 0
KST2 110926Z 36014KT M05/M12 A3012 RMK A01 T10491120  RH  057%=      5-min Rain = 0
KST2 110927Z 35016KT M05/M12 A3012 RMK A01 T10491120  RH  057%=      5-min Rain = 0
KST2 110928Z 36015KT M05/M12 A3012 RMK A01 T10481120  RH  057%=      5-min Rain = 0
KST2 110929Z 35018KT M05/M12 A3012 RMK A01 T10481120  RH  057%=      5-min Rain = 0
KST2 110930Z 35015KT M05/M12 A3012 RMK A01 T10491120  RH  057%=      5-min Rain = 0
KST2 110931Z 35014KT M05/M12 A3012 RMK A01 T10491120  RH  057%=      5-min Rain = 0
KST2 110932Z 35015KT M05/M12 A3012 RMK A01 T10491120  RH  058%=      5-min Rain = 0
KST2 110933Z 36015KT M05/M12 A3012 RMK A01 T10491120  RH  057%=      5-min Rain = 0
KST2 110934Z 35016G21KT M05/M12 A3012 RMK A01 T10481120  RH  057%=      5-min Rain = 0
KST2 110935Z 35019KT M05/M12 A3012 RMK A01 T10481120  RH  057%=      5-min Rain = 0
KST2 110936Z 35020KT M05/M12 A3012 RMK A01 T10481120  RH  057%=      5-min Rain = 0
KST2 110937Z 00019KT M05/M12 A3012 RMK A01 T10491120  RH  058%=      5-min Rain = 0
KST2 110938Z 00020KT M05/M12 A3012 RMK A01 T10491120  RH  058%=      5-min Rain = 0
KST2 110939Z 01020KT M05/M12 A3012 RMK A01 T10501120  RH  058%=      5-min Rain = 0
KST2 110940Z 36017KT M05/M12 A3012 RMK A01 T10501120  RH  058%=      5-min Rain = 0
KST2 110941Z 00017KT M05/M12 A3012 RMK A01 T10501120  RH  058%=      5-min Rain = 0
KST2 110942Z 00018KT M05/M12 A3012 RMK A01 T10491120  RH  058%=      5-min Rain = 0
KST2 110943Z 00017KT M05/M12 A3012 RMK A01 T10491120  RH  058%=      5-min Rain = 0
KST2 110944Z 00018KT M05/M12 A3012 RMK A01 T10501120  RH  058%=      5-min Rain = 0
KST2 110945Z 36019KT M05/M12 A3012 RMK A01 T10491119  RH  058%=      5-min Rain = 0
KST2 110946Z 36020KT M05/M12 A3012 RMK A01 T10491120  RH  058%=      5-min Rain = 0
KST2 110947Z 00019KT M05/M12 A3012 RMK A01 T10501120  RH  058%=      5-min Rain = 0
KST2 110948Z 36019KT M05/M12 A3012 RMK A01 T10501120  RH  058%=      5-min Rain = 0
KST2 110949Z 36017KT M05/M12 A3012 RMK A01 T10501120  RH  058%=      5-min Rain = 0
KST2 110950Z 36017KT M05/M12 A3012 RMK A01 T10501120  RH  058%=      5-min Rain = 0
KST2 110951Z 35020KT M05/M12 A3012 RMK A01 T10501120  RH  058%=      5-min Rain = 0
KST2 110952Z 35018KT M05/M12 A3012 RMK A01 T10501120  RH  058%=      5-min Rain = 0
KST2 110953Z 35018KT M05/M12 A3013 RMK A01 T10501120  RH  058%=      5-min Rain = 0
KST2 110954Z 00015KT M05/M12 A3013 RMK A01 T10501120  RH  058%=      5-min Rain = 0
KST2 110955Z 00017KT M05/M12 A3012 RMK A01 T10501120  RH  058%=      5-min Rain = 0
KST2 110956Z 35017KT M05/M12 A3012 RMK A01 T10501120  RH  058%=      5-min Rain = 0
KST2 110957Z 01014KT M05/M12 A3012 RMK A01 T10511120  RH  058%=      5-min Rain = 0
KST2 110958Z 00016KT M05/M12 A3012 RMK A01 T10511120  RH  058%=      5-min Rain = 0
KST2 110959Z 01014KT M05/M12 A3013 RMK A01 T10501120  RH  058%=      5-min Rain = 0
KST2 111000Z 01016KT M05/M12 A3013 RMK A01 T10501120  RH  058%=      5-min Rain = 0
KST2 111001Z 01015KT M05/M12 A3013 RMK A01 T10501119  RH  058%=      5-min Rain = 0
KST2 111002Z 00017KT M05/M12 A3013 RMK A01 T10501120  RH  058%=      5-min Rain = 0
KST2 111003Z 00017KT M05/M12 A3013 RMK A01 T10501120  RH  058%=      5-min Rain = 0
KST2 111004Z 36017KT M05/M12 A3012 RMK A01 T10501120  RH  058%=      5-min Rain = 0
KST2 111005Z 36018KT M05/M12 A3012 RMK A01 T10501119  RH  058%=      5-min Rain = 0
KST2 111006Z 00017KT M05/M12 A3013 RMK A01 T10501119  RH  058%=      5-min Rain = 0
KST2 111007Z 36018KT M05/M12 A3013 RMK A01 T10501119  RH  058%=      5-min Rain = 0
KST2 111008Z 36017KT M05/M12 A3013 RMK A01 T10501119  RH  058%=      5-min Rain = 0
KST2 111009Z 35017KT M05/M12 A3013 RMK A01 T10501119  RH  058%=      5-min Rain = 0
KST2 111010Z 36017KT M05/M12 A3013 RMK A01 T10501119  RH  058%=      5-min Rain = 0
KST2 111011Z 36018KT M05/M12 A3013 RMK A01 T10501119  RH  058%=      5-min Rain = 0
KST2 111012Z 00017KT M05/M12 A3013 RMK A01 T10501119  RH  058%=      5-min Rain = 0
KST2 111013Z 00017KT M05/M12 A3013 RMK A01 T10501119  RH  058%=      5-min Rain = 0
KST2 111014Z 01017KT M05/M12 A3013 RMK A01 T10501119  RH  058%=      5-min Rain = 0
KST2 111015Z 00018KT M05/M12 A3013 RMK A01 T10501119  RH  059%=      5-min Rain = 0
KST2 111016Z 00017KT M05/M12 A3013 RMK A01 T10501119  RH  059%=      5-min Rain = 0
KST2 111017Z 36018KT M05/M12 A3013 RMK A01 T10501119  RH  058%=      5-min Rain = 0
KST2 111018Z 36019KT M05/M12 A3014 RMK A01 T10501119  RH  058%=      5-min Rain = 0
KST2 111019Z 00017KT M05/M12 A3014 RMK A01 T10501119  RH  058%=      5-min Rain = 0
KST2 111020Z 00017KT M05/M12 A3013 RMK A01 T10501119  RH  058%=      5-min Rain = 0
KST2 111021Z 01017KT M05/M12 A3013 RMK A01 T10501119  RH  058%=      5-min Rain = 0
KST2 111022Z 01018KT M05/M12 A3014 RMK A01 T10501119  RH  058%=      5-min Rain = 0
KST2 111023Z 00018KT M05/M12 A3014 RMK A01 T10501119  RH  058%=      5-min Rain = 0
KST2 111024Z 01015KT M05/M12 A3014 RMK A01 T10501119  RH  059%=      5-min Rain = 0
KST2 111025Z 01019KT M05/M12 A3014 RMK A01 T10501118  RH  059%=      5-min Rain = 0
KST2 111026Z 00018KT M05/M12 A3014 RMK A01 T10491119  RH  058%=      5-min Rain = 0
KST2 111027Z 00018KT M05/M12 A3014 RMK A01 T10491119  RH  058%=      5-min Rain = 0
KST2 111028Z 01018KT M05/M12 A3014 RMK A01 T10491119  RH  058%=      5-min Rain = 0
KST2 111029Z 01017KT M05/M12 A3014 RMK A01 T10491118  RH  058%=      5-min Rain = 0
KST2 111030Z 00018KT M05/M12 A3014 RMK A01 T10491119  RH  058%=      5-min Rain = 0
KST2 111031Z 00015G20KT M05/M12 A3014 RMK A01 T10501119  RH  058%=      5-min Rain = 0
KST2 111032Z 01017KT M05/M12 A3014 RMK A01 T10491119  RH  058%=      5-min Rain = 0
KST2 111033Z 36016KT M05/M12 A3014 RMK A01 T10491119  RH  058%=      5-min Rain = 0
KST2 111034Z 00014KT M05/M12 A3014 RMK A01 T10491119  RH  058%=      5-min Rain = 0
KST2 111035Z 01014KT M05/M12 A3014 RMK A01 T10491119  RH  058%=      5-min Rain = 0
KST2 111036Z 36014KT M05/M12 A3014 RMK A01 T10491119  RH  058%=      5-min Rain = 0
KST2 111037Z 36014KT M05/M12 A3014 RMK A01 T10491119  RH  058%=      5-min Rain = 0
KST2 111038Z 00016KT M05/M12 A3014 RMK A01 T10491119  RH  058%=      5-min Rain = 0
KST2 111039Z 00016KT M05/M12 A3014 RMK A01 T10491119  RH  058%=      5-min Rain = 0
KST2 111040Z 36017KT M05/M12 A3014 RMK A01 T10501119  RH  058%=      5-min Rain = 0
KST2 111041Z 01017KT M05/M12 A3014 RMK A01 T10511119  RH  058%=      5-min Rain = 0
KST2 111042Z 36016KT M05/M12 A3014 RMK A01 T10501119  RH  059%=      5-min Rain = 0
KST2 111043Z 36017KT M05/M12 A3014 RMK A01 T10501119  RH  058%=      5-min Rain = 0
KST2 111044Z 00016KT M05/M12 A3014 RMK A01 T10501119  RH  058%=      5-min Rain = 0
KST2 111045Z 36016KT M05/M12 A3014 RMK A01 T10501119  RH  058%=      5-min Rain = 0
KST2 111046Z 36016KT M05/M12 A3014 RMK A01 T10501119  RH  058%=      5-min Rain = 0
KST2 111047Z 36016KT M05/M12 A3014 RMK A01 T10501119  RH  058%=      5-min Rain = 0
KST2 111048Z 35017KT M05/M12 A3014 RMK A01 T10501119  RH  058%=      5-min Rain = 0
KST2 111049Z 35016KT M05/M12 A3014 RMK A01 T10501119  RH  058%=      5-min Rain = 0
KST2 111050Z 35016KT M05/M12 A3014 RMK A01 T10501119  RH  058%=      5-min Rain = 0
KST2 111051Z 35017KT M05/M12 A3014 RMK A01 T10501119  RH  058%=      5-min Rain = 0
KST2 111052Z 36016KT M05/M12 A3014 RMK A01 T10501119  RH  058%=      5-min Rain = 0
KST2 111053Z 35017KT M05/M12 A3014 RMK A01 T10501119  RH  058%=      5-min Rain = 0
KST2 111054Z 36020KT M05/M12 A3014 RMK A01 T10501119  RH  058%=      5-min Rain = 0
KST2 111055Z 36017KT M05/M12 A3014 RMK A01 T10501119  RH  058%=      5-min Rain = 0
KST2 111056Z 35017KT M05/M12 A3014 RMK A01 T10501119  RH  059%=      5-min Rain = 0
KST2 111057Z 36017KT M05/M12 A3014 RMK A01 T10501119  RH  058%=      5-min Rain = 0
KST2 111058Z 36016KT M05/M12 A3014 RMK A01 T10501119  RH  058%=      5-min Rain = 0
KST2 111059Z 36016KT M05/M12 A3014 RMK A01 T10501119  RH  058%=      5-min Rain = 0
KST2 111100Z 36016KT M05/M12 A3014 RMK A01 T10501119  RH  059%=      5-min Rain = 0
KST2 111101Z 35015KT M05/M12 A3014 RMK A01 T10501119  RH  059%=      5-min Rain = 0
KST2 111102Z 35015KT M05/M12 A3014 RMK A01 T10501119  RH  059%=      5-min Rain = 0
KST2 111103Z 35014KT M05/M12 A3014 RMK A01 T10501119  RH  059%=      5-min Rain = 0
KST2 111104Z 35012KT M05/M12 A3014 RMK A01 T10501118  RH  059%=      5-min Rain = 0
KST2 111105Z 36013KT M05/M12 A3015 RMK A01 T10491118  RH  058%=      5-min Rain = 0
KST2 111106Z 00013KT M05/M12 A3015 RMK A01 T10481118  RH  058%=      5-min Rain = 0
KST2 111107Z 00016KT M05/M12 A3015 RMK A01 T10491118  RH  058%=      5-min Rain = 0
KST2 111108Z 36014KT M05/M12 A3015 RMK A01 T10491118  RH  058%=      5-min Rain = 0
KST2 111109Z 34014KT M05/M12 A3015 RMK A01 T10491118  RH  058%=      5-min Rain = 0
KST2 111110Z 35014KT M05/M12 A3015 RMK A01 T10491118  RH  058%=      5-min Rain = 0
KST2 111111Z 35017KT M05/M12 A3015 RMK A01 T10491119  RH  058%=      5-min Rain = 0
KST2 111112Z 36015KT M05/M12 A3014 RMK A01 T10491119  RH  058%=      5-min Rain = 0
KST2 111113Z 35017KT M05/M12 A3014 RMK A01 T10491118  RH  058%=      5-min Rain = 0
KST2 111114Z 35017KT M05/M12 A3014 RMK A01 T10491118  RH  058%=      5-min Rain = 0
KST2 111115Z 35017KT M05/M12 A3014 RMK A01 T10491118  RH  058%=      5-min Rain = 0
KST2 111116Z 35017KT M05/M12 A3014 RMK A01 T10491118  RH  058%=      5-min Rain = 0
KST2 111117Z 35017KT M05/M12 A3015 RMK A01 T10491119  RH  058%=      5-min Rain = 0
KST2 111118Z 35015KT M05/M12 A3015 RMK A01 T10491118  RH  058%=      5-min Rain = 0
KST2 111119Z 35014KT M05/M12 A3015 RMK A01 T10491118  RH  058%=      5-min Rain = 0
KST2 111120Z 00015KT M05/M12 A3015 RMK A01 T10491118  RH  058%=      5-min Rain = 0
KST2 111121Z 00014KT M05/M12 A3015 RMK A01 T10491119  RH  058%=      5-min Rain = 0
KST2 111122Z 00012KT M05/M12 A3016 RMK A01 T10491118  RH  058%=      5-min Rain = 0
KST2 111123Z 00014KT M05/M12 A3016 RMK A01 T10481118  RH  058%=      5-min Rain = 0
KST2 111124Z 01015KT M05/M12 A3016 RMK A01 T10481118  RH  058%=      5-min Rain = 0
KST2 111125Z 01015KT M05/M12 A3016 RMK A01 T10481119  RH  058%=      5-min Rain = 0
KST2 111126Z 01016KT M05/M12 A3015 RMK A01 T10481118  RH  058%=      5-min Rain = 0
KST2 111127Z 01015KT M05/M12 A3015 RMK A01 T10491118  RH  058%=      5-min Rain = 0
KST2 111128Z 01014KT M05/M12 A3015 RMK A01 T10481118  RH  058%=      5-min Rain = 0
KST2 111129Z 01017KT M05/M12 A3015 RMK A01 T10481118  RH  058%=      5-min Rain = 0
KST2 111130Z 00015KT M05/M12 A3015 RMK A01 T10481118  RH  058%=      5-min Rain = 0
KST2 111131Z 01017KT M05/M12 A3016 RMK A01 T10491118  RH  058%=      5-min Rain = 0
KST2 111132Z 00016KT M05/M12 A3016 RMK A01 T10491119  RH  058%=      5-min Rain = 0
KST2 111133Z 00013KT M05/M12 A3016 RMK A01 T10491118  RH  058%=      5-min Rain = 0
KST2 111134Z 36015KT M05/M12 A3016 RMK A01 T10491118  RH  058%=      5-min Rain = 0
KST2 111135Z 00015KT M05/M12 A3016 RMK A01 T10481118  RH  058%=      5-min Rain = 0
KST2 111136Z 01013KT M05/M12 A3016 RMK A01 T10491119  RH  058%=      5-min Rain = 0
KST2 111137Z 01014KT M05/M12 A3016 RMK A01 T10481118  RH  058%=      5-min Rain = 0
KST2 111138Z 01014KT M05/M12 A3016 RMK A01 T10481118  RH  058%=      5-min Rain = 0
KST2 111139Z 01014KT M05/M12 A3016 RMK A01 T10481118  RH  058%=      5-min Rain = 0
KST2 111140Z 01013KT M05/M12 A3016 RMK A01 T10481118  RH  058%=      5-min Rain = 0
KST2 111141Z 00014KT M05/M12 A3016 RMK A01 T10481118  RH  058%=      5-min Rain = 0
KST2 111142Z 01015KT M05/M12 A3016 RMK A01 T10481118  RH  058%=      5-min Rain = 0
KST2 111143Z 01015KT M05/M12 A3016 RMK A01 T10471118  RH  058%=      5-min Rain = 0
KST2 111144Z 01015KT M05/M12 A3016 RMK A01 T10481119  RH  058%=      5-min Rain = 0
KST2 111145Z 00014KT M05/M12 A3016 RMK A01 T10481118  RH  058%=      5-min Rain = 0
KST2 111146Z 00015KT M05/M12 A3016 RMK A01 T10481118  RH  058%=      5-min Rain = 0
KST2 111147Z 00014KT M05/M12 A3016 RMK A01 T10481118  RH  058%=      5-min Rain = 0
KST2 111148Z 00014KT M05/M12 A3016 RMK A01 T10481118  RH  058%=      5-min Rain = 0
KST2 111149Z 36014KT M05/M12 A3016 RMK A01 T10481118  RH  058%=      5-min Rain = 0
KST2 111150Z 01015KT M05/M12 A3016 RMK A01 T10481118  RH  058%=      5-min Rain = 0
KST2 111151Z 00015KT M05/M12 A3016 RMK A01 T10481118  RH  058%=      5-min Rain = 0
KST2 111152Z 01013KT M05/M12 A3017 RMK A01 T10481118  RH  058%=      5-min Rain = 0
KST2 111153Z 00015KT M05/M12 A3017 RMK A01 T10471118  RH  058%=      5-min Rain = 0
KST2 111154Z 00013KT M05/M12 A3017 RMK A01 T10471118  RH  058%=      5-min Rain = 0
KST2 111155Z 36015KT M05/M12 A3017 RMK A01 T10471117  RH  058%=      5-min Rain = 0
KST2 111156Z 36014KT M05/M12 A3017 RMK A01 T10461118  RH  058%=      5-min Rain = 0
KST2 111157Z 00012KT M05/M12 A3017 RMK A01 T10471118  RH  058%=      5-min Rain = 0
KST2 111158Z 00012KT M05/M12 A3017 RMK A01 T10471118  RH  058%=      5-min Rain = 0
KST2 111159Z 36014KT M05/M12 A3017 RMK A01 T10471118  RH  058%=      5-min Rain = 0
KST2 111200Z 35012KT M05/M12 A3017 RMK A01 T10461118  RH  058%=      5-min Rain = 0
KST2 111201Z 36012KT M05/M12 A3017 RMK A01 T10461118  RH  058%=      5-min Rain = 0
KST2 111202Z 01013KT M05/M12 A3017 RMK A01 T10461118  RH  057%=      5-min Rain = 0
KST2 111203Z 00013KT M05/M12 A3017 RMK A01 T10461118  RH  057%=      5-min Rain = 0
KST2 111204Z 00013KT M05/M12 A3017 RMK A01 T10461118  RH  057%=      5-min Rain = 0
KST2 111205Z 01015KT M05/M12 A3017 RMK A01 T10461117  RH  057%=      5-min Rain = 0
KST2 111206Z 01015KT M05/M12 A3017 RMK A01 T10461118  RH  057%=      5-min Rain = 0
KST2 111207Z 01015KT M05/M12 A3017 RMK A01 T10461118  RH  057%=      5-min Rain = 0
KST2 111208Z 01014KT M05/M12 A3017 RMK A01 T10471118  RH  057%=      5-min Rain = 0
KST2 111209Z 36014KT M05/M12 A3017 RMK A01 T10461118  RH  058%=      5-min Rain = 0
KST2 111210Z 36017KT M05/M12 A3017 RMK A01 T10461117  RH  057%=      5-min Rain = 0
KST2 111211Z 36014KT M05/M12 A3017 RMK A01 T10471118  RH  057%=      5-min Rain = 0
KST2 111212Z 00016KT M05/M12 A3017 RMK A01 T10471118  RH  058%=      5-min Rain = 0
KST2 111213Z 00015KT M05/M12 A3018 RMK A01 T10471118  RH  058%=      5-min Rain = 0
KST2 111214Z 00016KT M05/M12 A3018 RMK A01 T10471117  RH  058%=      5-min Rain = 0
KST2 111215Z 00014KT M05/M12 A3018 RMK A01 T10471118  RH  058%=      5-min Rain = 0
KST2 111216Z 01014KT M05/M12 A3018 RMK A01 T10471118  RH  058%=      5-min Rain = 0
KST2 111217Z 00014KT M05/M12 A3018 RMK A01 T10471118  RH  058%=      5-min Rain = 0
KST2 111218Z 00014KT M05/M12 A3018 RMK A01 T10471118  RH  058%=      5-min Rain = 0
KST2 111219Z 36015KT M05/M12 A3018 RMK A01 T10471117  RH  058%=      5-min Rain = 0
KST2 111220Z 00016KT M05/M12 A3018 RMK A01 T10471117  RH  058%=      5-min Rain = 0
KST2 111221Z 00015KT M05/M12 A3018 RMK A01 T10471117  RH  058%=      5-min Rain = 0
KST2 111222Z 00015KT M05/M12 A3018 RMK A01 T10461117  RH  058%=      5-min Rain = 0
KST2 111223Z 00016KT M05/M12 A3018 RMK A01 T10471117  RH  058%=      5-min Rain = 0
KST2 111224Z 00016KT M05/M12 A3018 RMK A01 T10471117  RH  058%=      5-min Rain = 0
KST2 111225Z 00013KT M05/M12 A3018 RMK A01 T10471117  RH  058%=      5-min Rain = 0
KST2 111226Z 00016KT M05/M12 A3018 RMK A01 T10471117  RH  058%=      5-min Rain = 0
KST2 111227Z 00015KT M05/M12 A3018 RMK A01 T10471117  RH  058%=      5-min Rain = 0
KST2 111228Z 00015KT M05/M12 A3018 RMK A01 T10471117  RH  058%=      5-min Rain = 0
KST2 111229Z 00014KT M05/M12 A3018 RMK A01 T10471117  RH  058%=      5-min Rain = 0
KST2 111230Z 35013KT M05/M12 A3018 RMK A01 T10471117  RH  058%=      5-min Rain = 0
KST2 111231Z 36015KT M05/M12 A3018 RMK A01 T10461116  RH  058%=      5-min Rain = 0
KST2 111232Z 00016KT M05/M12 A3018 RMK A01 T10461116  RH  058%=      5-min Rain = 0
KST2 111233Z 00016KT M05/M12 A3018 RMK A01 T10461116  RH  058%=      5-min Rain = 0
KST2 111234Z 00016KT M05/M12 A3018 RMK A01 T10461116  RH  058%=      5-min Rain = 0
KST2 111235Z 35013KT M05/M12 A3018 RMK A01 T10471116  RH  058%=      5-min Rain = 0
KST2 111236Z 00013KT M05/M12 A3018 RMK A01 T10461115  RH  059%=      5-min Rain = 0
KST2 111237Z 00015KT M05/M12 A3018 RMK A01 T10461115  RH  058%=      5-min Rain = 0
KST2 111238Z 00014KT M05/M12 A3018 RMK A01 T10461116  RH  058%=      5-min Rain = 0
KST2 111239Z 00014KT M05/M12 A3018 RMK A01 T10461115  RH  058%=      5-min Rain = 0
KST2 111240Z 35015KT M05/M12 A3018 RMK A01 T10461115  RH  058%=      5-min Rain = 0
KST2 111241Z 35014KT M05/M12 A3018 RMK A01 T10451115  RH  058%=      5-min Rain = 0
KST2 111242Z 36014KT M05/M12 A3018 RMK A01 T10461115  RH  058%=      5-min Rain = 0
KST2 111243Z 35016KT M05/M12 A3018 RMK A01 T10461115  RH  058%=      5-min Rain = 0
KST2 111244Z 36016KT M05/M12 A3019 RMK A01 T10451115  RH  058%=      5-min Rain = 0
KST2 111245Z 00017KT M05/M12 A3019 RMK A01 T10461115  RH  058%=      5-min Rain = 0
KST2 111246Z 36016KT M05/M12 A3019 RMK A01 T10461116  RH  058%=      5-min Rain = 0
KST2 111247Z 00015KT M05/M12 A3019 RMK A01 T10461115  RH  059%=      5-min Rain = 0
KST2 111248Z 36015KT M05/M12 A3019 RMK A01 T10461115  RH  059%=      5-min Rain = 0
KST2 111249Z 35017KT M05/M12 A3019 RMK A01 T10471115  RH  059%=      5-min Rain = 0
KST2 111250Z 36015KT M05/M12 A3019 RMK A01 T10471115  RH  059%=      5-min Rain = 0
KST2 111251Z 00016KT M05/M12 A3019 RMK A01 T10471115  RH  059%=      5-min Rain = 0
KST2 111252Z 00015KT M05/M12 A3019 RMK A01 T10461115  RH  059%=      5-min Rain = 0
KST2 111253Z 00015KT M05/M12 A3019 RMK A01 T10461115  RH  059%=      5-min Rain = 0
KST2 111254Z 00016KT M05/M12 A3019 RMK A01 T10461115  RH  059%=      5-min Rain = 0
KST2 111255Z 00015KT M05/M12 A3019 RMK A01 T10461115  RH  059%=      5-min Rain = 0
KST2 111256Z 00015KT M05/M12 A3019 RMK A01 T10461115  RH  059%=      5-min Rain = 0
KST2 111257Z 35014KT M05/M12 A3019 RMK A01 T10461115  RH  059%=      5-min Rain = 0
KST2 111258Z 35016KT M05/M11 A3019 RMK A01 T10461114  RH  059%=      5-min Rain = 0
KST2 111259Z 36015KT M05/M11 A302 RMK A01 T10461114  RH  059%=      5-min Rain = 0
KST2 111300Z 36015KT M05/M12 A302 RMK A01 T10461115  RH  059%=      5-min Rain = 0
KST2 111301Z 00014KT M05/M12 A302 RMK A01 T10461115  RH  059%=      5-min Rain = 0
KST2 111302Z 00014KT M05/M12 A302 RMK A01 T10461115  RH  059%=      5-min Rain = 0
KST2 111303Z 36014KT M05/M11 A302 RMK A01 T10451114  RH  059%=      5-min Rain = 0
KST2 111304Z 35014KT M05/M11 A302 RMK A01 T10451114  RH  059%=      5-min Rain = 0
KST2 111305Z 35013KT M05/M12 A302 RMK A01 T10451115  RH  059%=      5-min Rain = 0
KST2 111306Z 36014KT M05/M12 A302 RMK A01 T10461115  RH  059%=      5-min Rain = 0
KST2 111307Z 35014KT M05/M12 A302 RMK A01 T10461115  RH  059%=      5-min Rain = 0
KST2 111308Z 35015KT M05/M11 A302 RMK A01 T10461114  RH  059%=      5-min Rain = 0
KST2 111309Z 35015KT M05/M12 A302 RMK A01 T10461115  RH  059%=      5-min Rain = 0
KST2 111310Z 00015KT M05/M12 A302 RMK A01 T10461115  RH  059%=      5-min Rain = 0
KST2 111311Z 00015KT M05/M11 A302 RMK A01 T10461114  RH  059%=      5-min Rain = 0
KST2 111312Z 00015KT M05/M11 A302 RMK A01 T10451114  RH  059%=      5-min Rain = 0
KST2 111313Z 35015KT M05/M11 A302 RMK A01 T10451114  RH  059%=      5-min Rain = 0
KST2 111314Z 36014KT M05/M11 A302 RMK A01 T10451114  RH  059%=      5-min Rain = 0
KST2 111315Z 36014KT M05/M12 A302 RMK A01 T10451115  RH  059%=      5-min Rain = 0
KST2 111316Z 00014KT M05/M11 A302 RMK A01 T10461114  RH  059%=      5-min Rain = 0
KST2 111317Z 00015KT M05/M11 A302 RMK A01 T10461114  RH  059%=      5-min Rain = 0
KST2 111318Z 00014KT M05/M11 A302 RMK A01 T10451114  RH  059%=      5-min Rain = 0
KST2 111319Z 36013KT M05/M11 A302 RMK A01 T10451114  RH  059%=      5-min Rain = 0
KST2 111320Z 36013KT M05/M11 A302 RMK A01 T10451114  RH  059%=      5-min Rain = 0
KST2 111321Z 36015KT M05/M11 A302 RMK A01 T10451114  RH  059%=      5-min Rain = 0
KST2 111322Z 35013KT M05/M11 A3021 RMK A01 T10451114  RH  059%=      5-min Rain = 0
KST2 111323Z 35012KT M05/M11 A3021 RMK A01 T10451114  RH  059%=      5-min Rain = 0
KST2 111324Z 35013KT M05/M11 A3021 RMK A01 T10451114  RH  059%=      5-min Rain = 0
KST2 111325Z 35013KT M05/M11 A3021 RMK A01 T10451114  RH  059%=      5-min Rain = 0
KST2 111326Z 35014KT M05/M11 A3021 RMK A01 T10451114  RH  058%=      5-min Rain = 0
KST2 111327Z 35012KT M05/M11 A3021 RMK A01 T10451114  RH  059%=      5-min Rain = 0
KST2 111328Z 35013KT M04/M11 A3021 RMK A01 T10441114  RH  058%=      5-min Rain = 0
KST2 111329Z 35013KT M04/M11 A3021 RMK A01 T10441114  RH  058%=      5-min Rain = 0
KST2 111330Z 35014KT M04/M11 A3021 RMK A01 T10441114  RH  058%=      5-min Rain = 0
KST2 111331Z 35013KT M05/M11 A3021 RMK A01 T10451114  RH  058%=      5-min Rain = 0
KST2 111332Z 36014KT M04/M11 A3021 RMK A01 T10441114  RH  058%=      5-min Rain = 0
KST2 111333Z 35012KT M04/M11 A3021 RMK A01 T10441114  RH  058%=      5-min Rain = 0
KST2 111334Z 35014KT M04/M11 A3021 RMK A01 T10441113  RH  058%=      5-min Rain = 0
KST2 111335Z 35014KT M04/M11 A3021 RMK A01 T10441114  RH  058%=      5-min Rain = 0
KST2 111336Z 35013KT M04/M11 A3021 RMK A01 T10441114  RH  058%=      5-min Rain = 0
KST2 111337Z 35014KT M04/M11 A3021 RMK A01 T10441114  RH  058%=      5-min Rain = 0
KST2 111338Z 35014KT M04/M11 A3021 RMK A01 T10441113  RH  058%=      5-min Rain = 0
KST2 111339Z 35013KT M04/M11 A3021 RMK A01 T10441113  RH  058%=      5-min Rain = 0
KST2 111340Z 35013KT M04/M11 A3021 RMK A01 T10441113  RH  058%=      5-min Rain = 0
KST2 111341Z 34012KT M04/M11 A3021 RMK A01 T10441113  RH  058%=      5-min Rain = 0
KST2 111342Z 34012KT M04/M11 A3021 RMK A01 T10441113  RH  058%=      5-min Rain = 0
KST2 111343Z 34011KT M04/M11 A3021 RMK A01 T10431113  RH  058%=      5-min Rain = 0
KST2 111344Z 35010KT M04/M11 A3021 RMK A01 T10431112  RH  059%=      5-min Rain = 0
KST2 111345Z 34014KT M04/M11 A3021 RMK A01 T10431112  RH  059%=      5-min Rain = 0
KST2 111346Z 34014KT M04/M11 A3021 RMK A01 T10431112  RH  059%=      5-min Rain = 0
KST2 111347Z 34015KT M04/M11 A3022 RMK A01 T10431112  RH  059%=      5-min Rain = 0
KST2 111348Z 34016KT M04/M11 A3021 RMK A01 T10431112  RH  059%=      5-min Rain = 0
KST2 111349Z 34015KT M04/M11 A3021 RMK A01 T10431112  RH  059%=      5-min Rain = 0
KST2 111350Z 34015KT M04/M11 A3021 RMK A01 T10431112  RH  059%=      5-min Rain = 0
KST2 111351Z 34016KT M04/M11 A3021 RMK A01 T10431112  RH  059%=      5-min Rain = 0
KST2 111352Z 34016KT M04/M11 A3021 RMK A01 T10431112  RH  059%=      5-min Rain = 0
KST2 111353Z 34017KT M04/M11 A3021 RMK A01 T10431112  RH  059%=      5-min Rain = 0
KST2 111354Z 34016KT M04/M11 A3021 RMK A01 T10431112  RH  059%=      5-min Rain = 0
KST2 111355Z 34015KT M04/M11 A3021 RMK A01 T10431112  RH  059%=      5-min Rain = 0
KST2 111356Z 35015KT M04/M11 A3021 RMK A01 T10431112  RH  059%=      5-min Rain = 0
KST2 111357Z 35015KT M04/M11 A3021 RMK A01 T10431112  RH  059%=      5-min Rain = 0
KST2 111358Z 35013KT M04/M11 A3021 RMK A01 T10431112  RH  059%=      5-min Rain = 0
KST2 111359Z 36015KT M04/M11 A3022 RMK A01 T10421111  RH  059%=      5-min Rain = 0
KST2 111400Z 36016KT M04/M11 A3021 RMK A01 T10421112  RH  058%=      5-min Rain = 0
KST2 111401Z 35014KT M04/M11 A3021 RMK A01 T10421112  RH  058%=      5-min Rain = 0
KST2 111402Z 35013KT M04/M11 A3021 RMK A01 T10421112  RH  058%=      5-min Rain = 0
KST2 111403Z 34015KT M04/M11 A3021 RMK A01 T10421111  RH  058%=      5-min Rain = 0
KST2 111404Z 35015KT M04/M11 A3022 RMK A01 T10421112  RH  058%=      5-min Rain = 0
KST2 111405Z 35014KT M04/M11 A3022 RMK A01 T10421112  RH  058%=      5-min Rain = 0
KST2 111406Z 36015KT M04/M11 A3022 RMK A01 T10421112  RH  058%=      5-min Rain = 0
KST2 111407Z 35014KT M04/M11 A3022 RMK A01 T10411112  RH  058%=      5-min Rain = 0
KST2 111408Z 35016KT M04/M11 A3022 RMK A01 T10411112  RH  058%=      5-min Rain = 0
KST2 111409Z 36016KT M04/M11 A3022 RMK A01 T10421112  RH  058%=      5-min Rain = 0
KST2 111410Z 35016KT M04/M11 A3022 RMK A01 T10421112  RH  058%=      5-min Rain = 0
KST2 111411Z 34016KT M04/M11 A3022 RMK A01 T10411112  RH  058%=      5-min Rain = 0
KST2 111412Z 34015KT M04/M11 A3022 RMK A01 T10411112  RH  058%=      5-min Rain = 0
KST2 111413Z 34017KT M04/M11 A3022 RMK A01 T10411112  RH  058%=      5-min Rain = 0
KST2 111414Z 34018KT M04/M11 A3022 RMK A01 T10411112  RH  058%=      5-min Rain = 0
KST2 111415Z 34015KT M04/M11 A3022 RMK A01 T10411112  RH  058%=      5-min Rain = 0
KST2 111416Z 34015KT M04/M11 A3023 RMK A01 T10401111  RH  058%=      5-min Rain = 0
KST2 111417Z 34017KT M04/M11 A3023 RMK A01 T10401112  RH  058%=      5-min Rain = 0
KST2 111418Z 34017KT M04/M11 A3023 RMK A01 T10401112  RH  058%=      5-min Rain = 0
KST2 111419Z 35017KT M04/M11 A3023 RMK A01 T10411112  RH  058%=      5-min Rain = 0
KST2 111420Z 34016KT M04/M11 A3023 RMK A01 T10411112  RH  058%=      5-min Rain = 0
KST2 111421Z 34017KT M04/M11 A3023 RMK A01 T10401111  RH  058%=      5-min Rain = 0
KST2 111422Z 34016KT M04/M11 A3023 RMK A01 T10401111  RH  058%=      5-min Rain = 0
KST2 111423Z 34016KT M04/M11 A3023 RMK A01 T10401111  RH  058%=      5-min Rain = 0
KST2 111424Z 34018KT M04/M11 A3023 RMK A01 T10401111  RH  057%=      5-min Rain = 0
KST2 111425Z 34017KT M04/M11 A3023 RMK A01 T10401111  RH  057%=      5-min Rain = 0
KST2 111426Z 34019KT M04/M11 A3023 RMK A01 T10401112  RH  057%=      5-min Rain = 0
KST2 111427Z 34018KT M04/M11 A3023 RMK A01 T10401112  RH  057%=      5-min Rain = 0
KST2 111428Z 34017KT M04/M11 A3023 RMK A01 T10401112  RH  057%=      5-min Rain = 0
KST2 111429Z 34017KT M04/M11 A3023 RMK A01 T10401111  RH  058%=      5-min Rain = 0
KST2 111430Z 34016KT M04/M11 A3023 RMK A01 T10401111  RH  058%=      5-min Rain = 0
KST2 111431Z 34018KT M04/M11 A3023 RMK A01 T10401111  RH  058%=      5-min Rain = 0
KST2 111432Z 35017KT M04/M11 A3023 RMK A01 T10401111  RH  058%=      5-min Rain = 0
KST2 111433Z 34015KT M04/M11 A3023 RMK A01 T10401111  RH  058%=      5-min Rain = 0
KST2 111434Z 35016KT M04/M11 A3023 RMK A01 T10391111  RH  058%=      5-min Rain = 0
KST2 111435Z 35018KT M04/M11 A3023 RMK A01 T10391111  RH  057%=      5-min Rain = 0
KST2 111436Z 34017KT M04/M11 A3024 RMK A01 T10401112  RH  057%=      5-min Rain = 0
KST2 111437Z 35017KT M04/M11 A3024 RMK A01 T10401112  RH  057%=      5-min Rain = 0
KST2 111438Z 35017KT M04/M11 A3024 RMK A01 T10391112  RH  057%=      5-min Rain = 0
KST2 111439Z 35018KT M04/M11 A3024 RMK A01 T10391111  RH  057%=      5-min Rain = 0
KST2 111440Z 35017KT M04/M11 A3024 RMK A01 T10391112  RH  057%=      5-min Rain = 0
KST2 111441Z 35015KT M04/M11 A3024 RMK A01 T10391111  RH  057%=      5-min Rain = 0
KST2 111442Z 35018KT M04/M11 A3024 RMK A01 T10381111  RH  057%=      5-min Rain = 0
KST2 111443Z 35018KT M04/M11 A3024 RMK A01 T10381111  RH  057%=      5-min Rain = 0
KST2 111444Z 34017KT M04/M11 A3024 RMK A01 T10381112  RH  057%=      5-min Rain = 0
KST2 111445Z 34017KT M04/M11 A3024 RMK A01 T10381111  RH  057%=      5-min Rain = 0
KST2 111446Z 35015KT M04/M11 A3024 RMK A01 T10381111  RH  057%=      5-min Rain = 0
KST2 111447Z 36018KT M04/M11 A3024 RMK A01 T10381111  RH  057%=      5-min Rain = 0
KST2 111448Z 35018KT M04/M11 A3024 RMK A01 T10381112  RH  057%=      5-min Rain = 0
KST2 111449Z 35018KT M04/M11 A3024 RMK A01 T10391112  RH  057%=      5-min Rain = 0
KST2 111450Z 00017G22KT M04/M11 A3024 RMK A01 T10401113  RH  057%=      5-min Rain = 0
KST2 111451Z 35017KT M04/M11 A3024 RMK A01 T10391112  RH  057%=      5-min Rain = 0
KST2 111452Z 35017KT M04/M11 A3024 RMK A01 T10381112  RH  057%=      5-min Rain = 0
KST2 111453Z 35016KT M04/M11 A3024 RMK A01 T10371111  RH  056%=      5-min Rain = 0
KST2 111454Z 35018KT M04/M11 A3024 RMK A01 T10371112  RH  056%=      5-min Rain = 0
KST2 111455Z 35019KT M04/M11 A3024 RMK A01 T10371112  RH  056%=      5-min Rain = 0
KST2 111456Z 35018KT M04/M11 A3024 RMK A01 T10381112  RH  056%=      5-min Rain = 0
KST2 111457Z 35019KT M04/M11 A3024 RMK A01 T10381112  RH  056%=      5-min Rain = 0
KST2 111458Z 35017KT M04/M11 A3025 RMK A01 T10381113  RH  056%=      5-min Rain = 0
KST2 111459Z 36017KT M04/M11 A3025 RMK A01 T10381113  RH  056%=      5-min Rain = 0
KST2 111500Z 35019KT M04/M11 A3025 RMK A01 T10381113  RH  056%=      5-min Rain = 0
KST2 111501Z 00018KT M04/M11 A3025 RMK A01 T10391113  RH  056%=      5-min Rain = 0
KST2 111502Z 35016KT M04/M11 A3025 RMK A01 T10391113  RH  056%=      5-min Rain = 0
KST2 111503Z 34015KT M04/M11 A3025 RMK A01 T10381112  RH  056%=      5-min Rain = 0
KST2 111504Z 34017KT M04/M11 A3025 RMK A01 T10371112  RH  056%=      5-min Rain = 0
KST2 111505Z 35016KT M04/M11 A3025 RMK A01 T10371113  RH  056%=      5-min Rain = 0
KST2 111506Z 35017KT M04/M11 A3025 RMK A01 T10371113  RH  056%=      5-min Rain = 0
KST2 111507Z 35017KT M04/M11 A3025 RMK A01 T10381113  RH  056%=      5-min Rain = 0
KST2 111508Z 34016KT M04/M11 A3025 RMK A01 T10381113  RH  056%=      5-min Rain = 0
KST2 111509Z 34016KT M04/M11 A3025 RMK A01 T10381113  RH  056%=      5-min Rain = 0
KST2 111510Z 34018KT M04/M11 A3025 RMK A01 T10381113  RH  056%=      5-min Rain = 0
KST2 111511Z 34018KT M04/M11 A3025 RMK A01 T10381114  RH  056%=      5-min Rain = 0
KST2 111512Z 33017KT M04/M11 A3025 RMK A01 T10391114  RH  056%=      5-min Rain = 0
KST2 111513Z 34016KT M04/M11 A3025 RMK A01 T10381114  RH  056%=      5-min Rain = 0
KST2 111514Z 34016KT M04/M11 A3025 RMK A01 T10381113  RH  056%=      5-min Rain = 0
KST2 111515Z 34017KT M04/M11 A3025 RMK A01 T10361112  RH  056%=      5-min Rain = 0
KST2 111516Z 35018KT M04/M11 A3025 RMK A01 T10361112  RH  055%=      5-min Rain = 0
KST2 111517Z 35018G23KT M04/M11 A3025 RMK A01 T10371114  RH  055%=      5-min Rain = 0
KST2 111518Z 34019KT M04/M11 A3025 RMK A01 T10381114  RH  056%=      5-min Rain = 0
KST2 111519Z 35018KT M04/M11 A3025 RMK A01 T10381114  RH  056%=      5-min Rain = 0
KST2 111520Z 35014KT M04/M11 A3025 RMK A01 T10391114  RH  056%=      5-min Rain = 0
KST2 111521Z 34015KT M04/M11 A3025 RMK A01 T10371112  RH  056%=      5-min Rain = 0
KST2 111522Z 35017KT M03/M11 A3025 RMK A01 T10341111  RH  055%=      5-min Rain = 0
KST2 111523Z 35018KT M03/M11 A3026 RMK A01 T10341113  RH  055%=      5-min Rain = 0
KST2 111524Z 35016KT M04/M12 A3026 RMK A01 T10351115  RH  054%=      5-min Rain = 0
KST2 111525Z 35019KT M04/M11 A3026 RMK A01 T10361114  RH  055%=      5-min Rain = 0
KST2 111526Z 35020KT M04/M12 A3026 RMK A01 T10361115  RH  055%=      5-min Rain = 0
KST2 111527Z 35019KT M04/M12 A3026 RMK A01 T10371115  RH  055%=      5-min Rain = 0
KST2 111528Z 35018KT M04/M12 A3026 RMK A01 T10381115  RH  055%=      5-min Rain = 0
KST2 111529Z 35016KT M04/M12 A3026 RMK A01 T10371115  RH  055%=      5-min Rain = 0
KST2 111530Z 36017KT M04/M11 A3026 RMK A01 T10371114  RH  055%=      5-min Rain = 0
KST2 111531Z 00018KT M04/M12 A3026 RMK A01 T10371115  RH  055%=      5-min Rain = 0
KST2 111532Z 35017KT M04/M12 A3026 RMK A01 T10381116  RH  054%=      5-min Rain = 0
KST2 111533Z 36016KT M04/M12 A3026 RMK A01 T10381116  RH  055%=      5-min Rain = 0
KST2 111534Z 36017KT M04/M11 A3026 RMK A01 T10371114  RH  055%=      5-min Rain = 0
KST2 111535Z 00016KT M04/M11 A3026 RMK A01 T10361114  RH  055%=      5-min Rain = 0
KST2 111536Z 00016KT M04/M12 A3026 RMK A01 T10361115  RH  054%=      5-min Rain = 0
KST2 111537Z 35016KT M04/M11 A3026 RMK A01 T10351114  RH  054%=      5-min Rain = 0
KST2 111538Z 35015KT M04/M12 A3026 RMK A01 T10351115  RH  054%=      5-min Rain = 0
KST2 111539Z 36016KT M04/M12 A3027 RMK A01 T10361115  RH  054%=      5-min Rain = 0
KST2 111540Z 00015KT M03/M11 A3026 RMK A01 T10341113  RH  054%=      5-min Rain = 0
KST2 111541Z 36017KT M03/M11 A3027 RMK A01 T10341114  RH  054%=      5-min Rain = 0
KST2 111542Z 00018KT M04/M12 A3027 RMK A01 T10351115  RH  054%=      5-min Rain = 0
KST2 111543Z 36017KT M04/M12 A3027 RMK A01 T10351115  RH  054%=      5-min Rain = 0
KST2 111544Z 35015KT M04/M12 A3027 RMK A01 T10371116  RH  054%=      5-min Rain = 0
KST2 111545Z 35016KT M04/M12 A3027 RMK A01 T10371115  RH  054%=      5-min Rain = 0
KST2 111546Z 34017KT M04/M12 A3027 RMK A01 T10361115  RH  054%=      5-min Rain = 0
KST2 111547Z 34018KT M04/M12 A3027 RMK A01 T10361115  RH  054%=      5-min Rain = 0
KST2 111548Z 34018KT M04/M12 A3027 RMK A01 T10361115  RH  054%=      5-min Rain = 0
KST2 111549Z 34016KT M04/M12 A3027 RMK A01 T10371115  RH  054%=      5-min Rain = 0
KST2 111550Z 34018KT M04/M12 A3027 RMK A01 T10361115  RH  054%=      5-min Rain = 0
KST2 111551Z 34015KT M04/M11 A3027 RMK A01 T10351114  RH  054%=      5-min Rain = 0
KST2 111552Z 35016KT M04/M11 A3027 RMK A01 T10351114  RH  054%=      5-min Rain = 0
KST2 111553Z 00017KT M04/M12 A3027 RMK A01 T10361116  RH  054%=      5-min Rain = 0
KST2 111554Z 36016KT M04/M12 A3027 RMK A01 T10361116  RH  054%=      5-min Rain = 0
KST2 111555Z 36016KT M04/M12 A3027 RMK A01 T10361115  RH  054%=      5-min Rain = 0
KST2 111556Z 36016KT M04/M12 A3027 RMK A01 T10361115  RH  054%=      5-min Rain = 0
KST2 111557Z 35016KT M04/M12 A3027 RMK A01 T10371116  RH  054%=      5-min Rain = 0
KST2 111558Z 34014KT M04/M12 A3027 RMK A01 T10371116  RH  054%=      5-min Rain = 0
KST2 111559Z 34015KT M04/M12 A3027 RMK A01 T10371116  RH  054%=      5-min Rain = 0
KST2 111600Z 34015KT M04/M12 A3027 RMK A01 T10371116  RH  054%=      5-min Rain = 0
KST2 111601Z 34017KT M04/M12 A3027 RMK A01 T10371116  RH  054%=      5-min Rain = 0
KST2 111602Z 34017KT M04/M12 A3027 RMK A01 T10371116  RH  054%=      5-min Rain = 0
KST2 111603Z 34015KT M04/M12 A3027 RMK A01 T10371116  RH  054%=      5-min Rain = 0
KST2 111604Z 34016KT M04/M12 A3027 RMK A01 T10371116  RH  054%=      5-min Rain = 0
KST2 111605Z 33013KT M04/M12 A3027 RMK A01 T10371116  RH  054%=      5-min Rain = 0
KST2 111606Z 33015KT M04/M12 A3027 RMK A01 T10361115  RH  054%=      5-min Rain = 0
KST2 111607Z 34016KT M04/M12 A3027 RMK A01 T10351115  RH  054%=      5-min Rain = 0
KST2 111608Z 34017KT M04/M11 A3027 RMK A01 T10351114  RH  054%=      5-min Rain = 0
KST2 111609Z 35015KT M03/M11 A3027 RMK A01 T10331114  RH  054%=      5-min Rain = 0
KST2 111610Z 35016KT M03/M12 A3027 RMK A01 T10341115  RH  053%=      5-min Rain = 0
KST2 111611Z 34016KT M03/M12 A3028 RMK A01 T10341115  RH  053%=      5-min Rain = 0
KST2 111612Z 34014KT M03/M11 A3028 RMK A01 T10331114  RH  054%=      5-min Rain = 0
KST2 111613Z 35014KT M03/M11 A3028 RMK A01 T10321114  RH  053%=      5-min Rain = 0
KST2 111614Z 35016KT M03/M11 A3028 RMK A01 T10321114  RH  053%=      5-min Rain = 0
KST2 111615Z 35016KT M03/M12 A3028 RMK A01 T10321115  RH  053%=      5-min Rain = 0
KST2 111616Z 35015KT M03/M11 A3028 RMK A01 T10321114  RH  053%=      5-min Rain = 0
KST2 111617Z 35017KT M03/M11 A3027 RMK A01 T10301113  RH  053%=      5-min Rain = 0
KST2 111618Z 34016KT M03/M11 A3027 RMK A01 T10301114  RH  052%=      5-min Rain = 0
KST2 111619Z 34016KT M03/M11 A3027 RMK A01 T10291113  RH  052%=      5-min Rain = 0
KST2 111620Z 33013KT M03/M11 A3027 RMK A01 T10281113  RH  052%=      5-min Rain = 0
KST2 111621Z 33015KT M03/M11 A3027 RMK A01 T10251109  RH  052%=      5-min Rain = 0
KST2 111622Z 33017KT M02/M11 A3027 RMK A01 T10241110  RH  051%=      5-min Rain = 0
KST2 111623Z 35016KT M03/M11 A3028 RMK A01 T10271113  RH  051%=      5-min Rain = 0
KST2 111624Z 34015KT M03/M11 A3028 RMK A01 T10271113  RH  052%=      5-min Rain = 0
KST2 111625Z 33014KT M03/M11 A3028 RMK A01 T10281114  RH  052%=      5-min Rain = 0
KST2 111626Z 35016KT M03/M11 A3028 RMK A01 T10281114  RH  052%=      5-min Rain = 0
KST2 111627Z 34016KT M03/M12 A3028 RMK A01 T10291116  RH  051%=      5-min Rain = 0
KST2 111628Z 33014KT M03/M12 A3028 RMK A01 T10311117  RH  052%=      5-min Rain = 0
KST2 111629Z 34013KT M03/M12 A3028 RMK A01 T10321116  RH  052%=      5-min Rain = 0
KST2 111630Z 36017KT M03/M12 A3028 RMK A01 T10311115  RH  052%=      5-min Rain = 0
KST2 111631Z 35015KT M03/M12 A3028 RMK A01 T10301115  RH  052%=      5-min Rain = 0
KST2 111632Z 35014KT M03/M12 A3028 RMK A01 T10311116  RH  052%=      5-min Rain = 0
KST2 111633Z 34014KT M03/M12 A3028 RMK A01 T10311115  RH  052%=      5-min Rain = 0
KST2 111634Z 34016KT M03/M11 A3028 RMK A01 T10271110  RH  053%=      5-min Rain = 0
KST2 111635Z 34017KT M02/M11 A3028 RMK A01 T10231109  RH  052%=      5-min Rain = 0
KST2 111636Z 33015KT M02/M11 A3028 RMK A01 T10221110  RH  051%=      5-min Rain = 0
KST2 111637Z 33016KT M02/M11 A3028 RMK A01 T10191108  RH  051%=      5-min Rain = 0
KST2 111638Z 34018KT M02/M11 A3028 RMK A01 T10191109  RH  050%=      5-min Rain = 0
KST2 111639Z 34016KT M02/M11 A3028 RMK A01 T10211112  RH  050%=      5-min Rain = 0
KST2 111640Z 34018KT M02/M11 A3028 RMK A01 T10221112  RH  050%=      5-min Rain = 0
KST2 111641Z 34017KT M02/M11 A3028 RMK A01 T10231113  RH  050%=      5-min Rain = 0
KST2 111642Z 35016KT M02/M11 A3028 RMK A01 T10231113  RH  050%=      5-min Rain = 0
KST2 111643Z 35017KT M02/M11 A3028 RMK A01 T10241114  RH  050%=      5-min Rain = 0
KST2 111644Z 34016KT M03/M11 A3028 RMK A01 T10251114  RH  051%=      5-min Rain = 0
KST2 111645Z 34014KT M03/M11 A3028 RMK A01 T10261114  RH  051%=      5-min Rain = 0
KST2 111646Z 34010KT M03/M12 A3028 RMK A01 T10271116  RH  051%=      5-min Rain = 0
KST2 111647Z 35016G21KT M03/M12 A3028 RMK A01 T10281115  RH  051%=      5-min Rain = 0
KST2 111648Z 34016KT M03/M11 A3028 RMK A01 T10261113  RH  051%=      5-min Rain = 0
KST2 111649Z 34017KT M02/M11 A3028 RMK A01 T10241112  RH  051%=      5-min Rain = 0
KST2 111650Z 35016KT M03/M11 A3028 RMK A01 T10251114  RH  050%=      5-min Rain = 0
KST2 111651Z 35014KT M03/M12 A3029 RMK A01 T10271116  RH  050%=      5-min Rain = 0
KST2 111652Z 34012KT M03/M12 A3028 RMK A01 T10281115  RH  051%=      5-min Rain = 0
KST2 111653Z 35015KT M03/M11 A3028 RMK A01 T10271114  RH  051%=      5-min Rain = 0
KST2 111654Z 36016KT M03/M11 A3028 RMK A01 T10251113  RH  051%=      5-min Rain = 0
KST2 111655Z 36014KT M03/M12 A3029 RMK A01 T10271115  RH  051%=      5-min Rain = 0
KST2 111656Z 01014KT M03/M12 A3029 RMK A01 T10281115  RH  051%=      5-min Rain = 0
KST2 111657Z 35016KT M03/M11 A3029 RMK A01 T10271113  RH  051%=      5-min Rain = 0
KST2 111658Z 35014KT M03/M11 A3028 RMK A01 T10251113  RH  051%=      5-min Rain = 0
KST2 111659Z 34015KT M03/M11 A3028 RMK A01 T10251114  RH  051%=      5-min Rain = 0
KST2 111700Z 34014KT M02/M11 A3028 RMK A01 T10241113  RH  050%=      5-min Rain = 0
KST2 111701Z 34012KT M03/M12 A3028 RMK A01 T10251115  RH  050%=      5-min Rain = 0
KST2 111702Z 33011KT M03/M11 A3029 RMK A01 T10261114  RH  051%=      5-min Rain = 0
KST2 111703Z 33015KT M02/M11 A3029 RMK A01 T10231112  RH  051%=      5-min Rain = 0
KST2 111704Z 33012KT M02/M11 A3029 RMK A01 T10241114  RH  050%=      5-min Rain = 0
KST2 111705Z 34011KT M03/M12 A3028 RMK A01 T10251115  RH  050%=      5-min Rain = 0
KST2 111706Z 34014KT M03/M12 A3028 RMK A01 T10251115  RH  050%=      5-min Rain = 0
KST2 111707Z 33015KT M02/M11 A3028 RMK A01 T10221112  RH  050%=      5-min Rain = 0
KST2 111708Z 33014KT M02/M11 A3029 RMK A01 T10221113  RH  050%=      5-min Rain = 0
KST2 111709Z 34011KT M02/M11 A3029 RMK A01 T10231114  RH  049%=      5-min Rain = 0
KST2 111710Z 34010KT M02/M11 A3029 RMK A01 T10231114  RH  050%=      5-min Rain = 0
KST2 111711Z 34012G18KT M02/M11 A3029 RMK A01 T10231114  RH  050%=      5-min Rain = 0
KST2 111712Z 35012KT M02/M11 A303 RMK A01 T10231114  RH  050%=      5-min Rain = 0
KST2 111713Z 34012KT M02/M11 A3029 RMK A01 T10221114  RH  049%=      5-min Rain = 0
KST2 111714Z 34016KT M02/M11 A3029 RMK A01 T10221114  RH  049%=      5-min Rain = 0
KST2 111715Z 35013KT M02/M11 A3029 RMK A01 T10211114  RH  049%=      5-min Rain = 0
KST2 111716Z 34014KT M02/M11 A3029 RMK A01 T10201113  RH  049%=      5-min Rain = 0
KST2 111717Z 34015KT M02/M11 A3029 RMK A01 T10191113  RH  049%=      5-min Rain = 0
KST2 111718Z 34015KT M02/M12 A3029 RMK A01 T10211115  RH  049%=      5-min Rain = 0
KST2 111719Z 34014KT M02/M12 A3029 RMK A01 T10211115  RH  049%=      5-min Rain = 0
KST2 111720Z 34012KT M02/M11 A3029 RMK A01 T10211114  RH  049%=      5-min Rain = 0
KST2 111721Z 34011KT M02/M11 A3029 RMK A01 T10211114  RH  049%=      5-min Rain = 0
KST2 111722Z 35014KT M02/M11 A3029 RMK A01 T10181112  RH  049%=      5-min Rain = 0
KST2 111723Z 35014KT M02/M11 A3029 RMK A01 T10151111  RH  048%=      5-min Rain = 0
KST2 111724Z 34015KT M02/M11 A3029 RMK A01 T10161112  RH  048%=      5-min Rain = 0
KST2 111725Z 34013KT M02/M12 A3029 RMK A01 T10181115  RH  048%=      5-min Rain = 0
KST2 111726Z 34014KT M02/M11 A3029 RMK A01 T10161112  RH  048%=      5-min Rain = 0
KST2 111727Z 36014KT M02/M11 A3029 RMK A01 T10161113  RH  048%=      5-min Rain = 0
KST2 111728Z 36011KT M02/M11 A3029 RMK A01 T10161113  RH  047%=      5-min Rain = 0
KST2 111729Z 35013KT M02/M11 A3029 RMK A01 T10161113  RH  048%=      5-min Rain = 0
KST2 111730Z 35014KT M01/M11 A3029 RMK A01 T10141111  RH  047%=      5-min Rain = 0
KST2 111731Z 35011KT M01/M11 A3029 RMK A01 T10141113  RH  047%=      5-min Rain = 0
KST2 111732Z 34011KT M01/M11 A3029 RMK A01 T10141112  RH  047%=      5-min Rain = 0
KST2 111733Z 36012KT M01/M11 A3029 RMK A01 T10131113  RH  047%=      5-min Rain = 0
KST2 111734Z 00013KT M02/M12 A3029 RMK A01 T10151115  RH  047%=      5-min Rain = 0
KST2 111735Z 01014KT M02/M11 A3029 RMK A01 T10151113  RH  047%=      5-min Rain = 0
KST2 111736Z 00014KT M02/M11 A3029 RMK A01 T10151114  RH  047%=      5-min Rain = 0
KST2 111737Z 36015KT M01/M11 A3029 RMK A01 T10131112  RH  047%=      5-min Rain = 0
KST2 111738Z 35012KT M01/M11 A3028 RMK A01 T10131114  RH  046%=      5-min Rain = 0
KST2 111739Z 34013KT M02/M11 A3028 RMK A01 T10151114  RH  047%=      5-min Rain = 0
KST2 111740Z 35013KT M01/M11 A3028 RMK A01 T10131113  RH  047%=      5-min Rain = 0
KST2 111741Z 34012KT M01/M11 A3029 RMK A01 T10131114  RH  046%=      5-min Rain = 0
KST2 111742Z 34009KT M01/M12 A3028 RMK A01 T10141115  RH  046%=      5-min Rain = 0
KST2 111743Z 01010KT M01/M11 A3028 RMK A01 T10141114  RH  047%=      5-min Rain = 0
KST2 111744Z 36012KT M01/M11 A3028 RMK A01 T10121112  RH  046%=      5-min Rain = 0
KST2 111745Z 34010KT M01/M11 A3028 RMK A01 T10111113  RH  046%=      5-min Rain = 0
KST2 111746Z 34013KT M01/M11 A3028 RMK A01 T10101113  RH  046%=      5-min Rain = 0
KST2 111747Z 35011KT M01/M11 A3028 RMK A01 T10101113  RH  046%=      5-min Rain = 0
KST2 111748Z 01011KT M01/M11 A3028 RMK A01 T10071110  RH  046%=      5-min Rain = 0
KST2 111749Z 33009KT M01/M11 A3028 RMK A01 T10071112  RH  045%=      5-min Rain = 0
KST2 111750Z 01007KT M01/M11 A3028 RMK A01 T10081112  RH  045%=      5-min Rain = 0
KST2 111751Z 01008KT M01/M11 A3028 RMK A01 T10081112  RH  045%=      5-min Rain = 0
KST2 111752Z 01011KT M01/M11 A3028 RMK A01 T10081112  RH  045%=      5-min Rain = 0
KST2 111753Z 01014KT M01/M11 A3028 RMK A01 T10071110  RH  045%=      5-min Rain = 0
KST2 111754Z 35011KT M01/M11 A3028 RMK A01 T10051110  RH  045%=      5-min Rain = 0
KST2 111755Z 00011KT M01/M11 A3028 RMK A01 T10061114  RH  044%=      5-min Rain = 0
KST2 111756Z 36012KT M01/M11 A3028 RMK A01 T10071113  RH  044%=      5-min Rain = 0
KST2 111757Z 36014KT M01/M11 A3028 RMK A01 T10061112  RH  045%=      5-min Rain = 0
KST2 111758Z 00011KT M01/M11 A3028 RMK A01 T10061113  RH  044%=      5-min Rain = 0
KST2 111759Z 01013KT M01/M11 A3028 RMK A01 T10061113  RH  044%=      5-min Rain = 0
KST2 111800Z 00013KT M01/M11 A3028 RMK A01 T10051113  RH  044%=      5-min Rain = 0
KST2 111801Z 35012KT M01/M12 A3027 RMK A01 T10061115  RH  044%=      5-min Rain = 0
KST2 111802Z 35010KT M01/M12 A3027 RMK A01 T10081116  RH  044%=      5-min Rain = 0
KST2 111803Z 00010KT M01/M12 A3028 RMK A01 T10081115  RH  044%=      5-min Rain = 0
KST2 111804Z 34009KT M01/M12 A3028 RMK A01 T10081115  RH  044%=      5-min Rain = 0
KST2 111805Z 35013KT M01/M11 A3027 RMK A01 T10061113  RH  044%=      5-min Rain = 0
KST2 111806Z 35009KT M01/M12 A3027 RMK A01 T10071116  RH  043%=      5-min Rain = 0
KST2 111807Z 35008G14KT M01/M12 A3027 RMK A01 T10091118  RH  044%=      5-min Rain = 0
KST2 111808Z 34013KT M01/M11 A3027 RMK A01 T10051113  RH  044%=      5-min Rain = 0
KST2 111809Z 34013KT M00/M11 A3027 RMK A01 T10021114  RH  043%=      5-min Rain = 0
KST2 111810Z 35015KT M00/M12 A3027 RMK A01 T10021115  RH  042%=      5-min Rain = 0
KST2 111811Z 35014KT M00/M12 A3027 RMK A01 T10031117  RH  042%=      5-min Rain = 0
KST2 111812Z 35014KT M00/M12 A3027 RMK A01 T10021115  RH  042%=      5-min Rain = 0
KST2 111813Z 36011KT M00/M12 A3027 RMK A01 T10011116  RH  042%=      5-min Rain = 0
KST2 111814Z 34012KT M00/M12 A3027 RMK A01 T10041118  RH  042%=      5-min Rain = 0
KST2 111815Z 35013KT M00/M12 A3027 RMK A01 T10041117  RH  042%=      5-min Rain = 0
KST2 111816Z 35013KT M00/M12 A3027 RMK A01 T10031116  RH  042%=      5-min Rain = 0
KST2 111817Z 34011KT M00/M12 A3027 RMK A01 T10031117  RH  042%=      5-min Rain = 0
KST2 111818Z 34009KT M00/M12 A3027 RMK A01 T10041118  RH  042%=      5-min Rain = 0
KST2 111819Z 00010KT M01/M12 A3027 RMK A01 T10051118  RH  042%=      5-min Rain = 0
KST2 111820Z 36011KT M00/M12 A3027 RMK A01 T10031116  RH  042%=      5-min Rain = 0
KST2 111821Z 35011KT M00/M12 A3027 RMK A01 T10021117  RH  042%=      5-min Rain = 0
KST2 111822Z 35012KT 00/M11 A3027 RMK A01 T00011114  RH  042%=      5-min Rain = 0
KST2 111823Z 34013KT 00/M11 A3027 RMK A01 T00041114  RH  041%=      5-min Rain = 0
KST2 111824Z 33011KT 00/M12 A3027 RMK A01 T00041117  RH  040%=      5-min Rain = 0
KST2 111825Z 34011KT 00/12 A3027 RMK A01 T00000-120  RH  040%=      5-min Rain = 0
KST2 111826Z 36011KT 00/M12 A3027 RMK A01 T00011117  RH  041%=      5-min Rain = 0
KST2 111827Z 35011KT 00/M12 A3027 RMK A01 T00031117  RH  040%=      5-min Rain = 0
KST2 111828Z 35011KT M00/M12 A3027 RMK A01 T10011121  RH  040%=      5-min Rain = 0
KST2 111829Z 35011KT M00/M12 A3027 RMK A01 T10011118  RH  041%=      5-min Rain = 0
KST2 111830Z 35015KT 00/M12 A3026 RMK A01 T00011117  RH  041%=      5-min Rain = 0
KST2 111831Z 35014KT 00/M12 A3027 RMK A01 T00021118  RH  040%=      5-min Rain = 0
KST2 111832Z 34011KT 00/M12 A3027 RMK A01 T00011119  RH  040%=      5-min Rain = 0
KST2 111833Z 34010KT 00/12 A3026 RMK A01 T00000-119  RH  040%=      5-min Rain = 0
KST2 111834Z 35013KT 00/M12 A3026 RMK A01 T00011118  RH  040%=      5-min Rain = 0
KST2 111835Z 36012KT 00/12 A3026 RMK A01 T00000-119  RH  040%=      5-min Rain = 0
KST2 111836Z 00012KT 00/12 A3026 RMK A01 T00-00-119  RH  040%=      5-min Rain = 0
KST2 111837Z 36010KT 00/12 A3026 RMK A01 T00000-119  RH  040%=      5-min Rain = 0
KST2 111838Z 35011KT 00/12 A3026 RMK A01 T00000-119  RH  040%=      5-min Rain = 0
KST2 111839Z 34009KT 00/M12 A3026 RMK A01 T00011119  RH  040%=      5-min Rain = 0
KST2 111840Z 34010G16KT 00/12 A3026 RMK A01 T00-00-119  RH  040%=      5-min Rain = 0
KST2 111841Z 34012KT 00/M12 A3026 RMK A01 T00011118  RH  040%=      5-min Rain = 0
KST2 111842Z 35012KT 00/M12 A3026 RMK A01 T00041115  RH  040%=      5-min Rain = 0
KST2 111843Z 36010KT 01/M12 A3027 RMK A01 T00061116  RH  039%=      5-min Rain = 0
KST2 111844Z 34011KT 01/M12 A3026 RMK A01 T00061117  RH  039%=      5-min Rain = 0
KST2 111845Z 34011KT 00/M12 A3026 RMK A01 T00041119  RH  039%=      5-min Rain = 0
KST2 111846Z 33012KT 00/M12 A3026 RMK A01 T00041119  RH  039%=      5-min Rain = 0
KST2 111847Z 34009KT 00/M12 A3026 RMK A01 T00041118  RH  039%=      5-min Rain = 0
KST2 111848Z 34009KT 01/M12 A3026 RMK A01 T00051118  RH  039%=      5-min Rain = 0
KST2 111849Z 34008KT 00/M12 A3026 RMK A01 T00041119  RH  039%=      5-min Rain = 0
KST2 111850Z 35009KT 00/M12 A3026 RMK A01 T00041118  RH  039%=      5-min Rain = 0
KST2 111851Z 36011KT 01/M12 A3026 RMK A01 T00061117  RH  039%=      5-min Rain = 0
KST2 111852Z 35010KT 01/M12 A3026 RMK A01 T00071116  RH  039%=      5-min Rain = 0
KST2 111853Z 35010KT 01/M12 A3025 RMK A01 T00091115  RH  039%=      5-min Rain = 0
KST2 111854Z 36011KT 01/M12 A3025 RMK A01 T00101117  RH  038%=      5-min Rain = 0
KST2 111855Z 01010KT 01/M12 A3025 RMK A01 T00091118  RH  038%=      5-min Rain = 0
KST2 111856Z 00008KT 01/M12 A3025 RMK A01 T00071118  RH  039%=      5-min Rain = 0
KST2 111857Z 35011KT 01/M12 A3025 RMK A01 T00081116  RH  039%=      5-min Rain = 0
KST2 111858Z 34013KT 01/M12 A3025 RMK A01 T00111115  RH  038%=      5-min Rain = 0
KST2 111859Z 34009KT 01/M12 A3025 RMK A01 T00121116  RH  038%=      5-min Rain = 0
KST2 111900Z 34009KT 01/M12 A3025 RMK A01 T00131115  RH  038%=      5-min Rain = 0
KST2 111901Z 34007KT 01/M12 A3025 RMK A01 T00121118  RH  037%=      5-min Rain = 0
KST2 111902Z 34009KT 01/M12 A3025 RMK A01 T00091120  RH  037%=      5-min Rain = 0
KST2 111903Z 33015KT 01/M12 A3025 RMK A01 T00091117  RH  038%=      5-min Rain = 0
KST2 111904Z 33013KT 01/M12 A3025 RMK A01 T00101118  RH  038%=      5-min Rain = 0
KST2 111905Z 34013KT 01/M12 A3025 RMK A01 T00091119  RH  038%=      5-min Rain = 0
KST2 111906Z 32010KT 01/M12 A3025 RMK A01 T00071119  RH  038%=      5-min Rain = 0
KST2 111907Z 33007KT 01/M12 A3025 RMK A01 T00081119  RH  038%=      5-min Rain = 0
KST2 111908Z 34008KT 01/M12 A3025 RMK A01 T00071119  RH  038%=      5-min Rain = 0
KST2 111909Z 34013G20KT 01/M12 A3025 RMK A01 T00111115  RH  039%=      5-min Rain = 0
KST2 111910Z 34014KT 02/M11 A3025 RMK A01 T00161113  RH  038%=      5-min Rain = 0
KST2 111911Z 35013KT 02/M12 A3025 RMK A01 T00161116  RH  037%=      5-min Rain = 0
KST2 111912Z 35012KT 01/M12 A3025 RMK A01 T00141119  RH  037%=      5-min Rain = 0
KST2 111913Z 35011KT 01/M12 A3025 RMK A01 T00121119  RH  037%=      5-min Rain = 0
KST2 111914Z 35010KT 01/M12 A3024 RMK A01 T00121119  RH  037%=      5-min Rain = 0
KST2 111915Z 00015KT 01/M12 A3024 RMK A01 T00121118  RH  037%=      5-min Rain = 0
KST2 111916Z 35016KT 01/M12 A3025 RMK A01 T00141118  RH  037%=      5-min Rain = 0
KST2 111917Z 34014KT 01/M12 A3024 RMK A01 T00121120  RH  037%=      5-min Rain = 0
KST2 111918Z 34014KT 01/M12 A3024 RMK A01 T00111120  RH  037%=      5-min Rain = 0
KST2 111919Z 34014KT 01/M12 A3024 RMK A01 T00141117  RH  037%=      5-min Rain = 0
KST2 111920Z 34011KT 01/M12 A3024 RMK A01 T00141118  RH  037%=      5-min Rain = 0
KST2 111921Z 36013KT 02/M12 A3024 RMK A01 T00151118  RH  036%=      5-min Rain = 0
KST2 111922Z 34014KT 02/M12 A3024 RMK A01 T00151117  RH  037%=      5-min Rain = 0
KST2 111923Z 00012KT 02/M12 A3024 RMK A01 T00161118  RH  036%=      5-min Rain = 0
KST2 111924Z 36011KT 01/M12 A3024 RMK A01 T00131121  RH  036%=      5-min Rain = 0
KST2 111925Z 35013KT 01/M12 A3024 RMK A01 T00121119  RH  037%=      5-min Rain = 0
KST2 111926Z 36011KT 01/M12 A3024 RMK A01 T00121119  RH  037%=      5-min Rain = 0
KST2 111927Z 34010KT 01/M12 A3024 RMK A01 T00121119  RH  037%=      5-min Rain = 0
KST2 111928Z 33010KT 01/M12 A3023 RMK A01 T00111120  RH  037%=      5-min Rain = 0
KST2 111929Z 33011KT 01/M12 A3023 RMK A01 T00111119  RH  037%=      5-min Rain = 0
KST2 111930Z 34011KT 01/M12 A3023 RMK A01 T00111120  RH  037%=      5-min Rain = 0
KST2 111931Z 34013G18KT 02/M12 A3023 RMK A01 T00151116  RH  037%=      5-min Rain = 0
KST2 111932Z 36016KT 02/M12 A3023 RMK A01 T00171117  RH  036%=      5-min Rain = 0
KST2 111933Z 35013KT 02/M12 A3023 RMK A01 T00151119  RH  036%=      5-min Rain = 0
KST2 111934Z 34013KT 02/M12 A3023 RMK A01 T00151119  RH  036%=      5-min Rain = 0
KST2 111935Z 01011KT 01/M12 A3023 RMK A01 T00121121  RH  036%=      5-min Rain = 0
KST2 111936Z 02008KT 01/M12 A3023 RMK A01 T00101121  RH  037%=      5-min Rain = 0
KST2 111937Z 35008KT 01/M12 A3023 RMK A01 T00101120  RH  037%=      5-min Rain = 0
KST2 111938Z 35009KT 01/M12 A3023 RMK A01 T00131117  RH  037%=      5-min Rain = 0
KST2 111939Z 36015KT 02/M12 A3023 RMK A01 T00161117  RH  037%=      5-min Rain = 0
KST2 111940Z 01012KT 02/M12 A3023 RMK A01 T00151120  RH  036%=      5-min Rain = 0
KST2 111941Z 00013KT 01/M12 A3023 RMK A01 T00131120  RH  036%=      5-min Rain = 0
KST2 111942Z 35014KT 01/M12 A3023 RMK A01 T00141119  RH  036%=      5-min Rain = 0
KST2 111943Z 34014KT 01/M12 A3023 RMK A01 T00141119  RH  036%=      5-min Rain = 0
KST2 111944Z 35015KT 02/M12 A3023 RMK A01 T00151119  RH  036%=      5-min Rain = 0
KST2 111945Z 35012KT 01/M12 A3023 RMK A01 T00141120  RH  036%=      5-min Rain = 0
KST2 111946Z 01013KT 01/M12 A3023 RMK A01 T00141119  RH  036%=      5-min Rain = 0
KST2 111947Z 01012KT 02/M12 A3023 RMK A01 T00151119  RH  036%=      5-min Rain = 0
KST2 111948Z 01011KT 02/M12 A3023 RMK A01 T00151119  RH  036%=      5-min Rain = 0
KST2 111949Z 35013KT 01/M12 A3023 RMK A01 T00141119  RH  036%=      5-min Rain = 0
KST2 111950Z 34013KT 01/M12 A3023 RMK A01 T00141119  RH  036%=      5-min Rain = 0
KST2 111951Z 33011KT 01/M12 A3023 RMK A01 T00141119  RH  036%=      5-min Rain = 0
KST2 111952Z 34008KT 02/M12 A3023 RMK A01 T00151118  RH  036%=      5-min Rain = 0
KST2 111953Z 34008G14KT 02/M12 A3022 RMK A01 T00171118  RH  036%=      5-min Rain = 0
KST2 111954Z 34014KT 02/M12 A3022 RMK A01 T00171117  RH  036%=      5-min Rain = 0
KST2 111955Z 35014KT 02/M12 A3023 RMK A01 T00161119  RH  036%=      5-min Rain = 0
KST2 111956Z 35012KT 02/M12 A3023 RMK A01 T00161118  RH  036%=      5-min Rain = 0
KST2 111957Z 35010KT 02/M12 A3023 RMK A01 T00181116  RH  036%=      5-min Rain = 0
KST2 111958Z 01012KT 02/M12 A3023 RMK A01 T00211115  RH  036%=      5-min Rain = 0
KST2 111959Z 35011KT 02/M12 A3023 RMK A01 T00221116  RH  035%=      5-min Rain = 0
KST2 112000Z 34008KT 02/M12 A3023 RMK A01 T00191119  RH  035%=      5-min Rain = 0
KST2 112001Z 01013KT 02/M12 A3023 RMK A01 T00181118  RH  036%=      5-min Rain = 0
KST2 112002Z 01011KT 02/M12 A3023 RMK A01 T00201115  RH  036%=      5-min Rain = 0
KST2 112003Z 01013KT 02/M12 A3023 RMK A01 T00201116  RH  036%=      5-min Rain = 0
KST2 112004Z 01012KT 02/M12 A3023 RMK A01 T00221116  RH  035%=      5-min Rain = 0
KST2 112005Z 01011KT 02/M12 A3023 RMK A01 T00201118  RH  035%=      5-min Rain = 0
KST2 112006Z 02009KT 02/M12 A3023 RMK A01 T00201117  RH  035%=      5-min Rain = 0
KST2 112007Z 35013KT 02/M12 A3022 RMK A01 T00211117  RH  035%=      5-min Rain = 0
KST2 112008Z 35013KT 02/M12 A3022 RMK A01 T00221116  RH  035%=      5-min Rain = 0
KST2 112009Z 35009KT 02/M12 A3022 RMK A01 T00191120  RH  035%=      5-min Rain = 0
KST2 112010Z 33010KT 02/M12 A3022 RMK A01 T00181118  RH  036%=      5-min Rain = 0
KST2 112011Z 32009KT 02/M12 A3022 RMK A01 T00201116  RH  036%=      5-min Rain = 0
KST2 112012Z 34010KT 02/M12 A3022 RMK A01 T00221116  RH  035%=      5-min Rain = 0
KST2 112013Z 01013KT 02/M12 A3022 RMK A01 T00231116  RH  035%=      5-min Rain = 0
KST2 112014Z 01013KT 02/M12 A3022 RMK A01 T00231117  RH  035%=      5-min Rain = 0
KST2 112015Z 00015KT 02/M12 A3022 RMK A01 T00221117  RH  035%=      5-min Rain = 0
KST2 112016Z 00012KT 02/M12 A3022 RMK A01 T00231117  RH  035%=      5-min Rain = 0
KST2 112017Z 35010KT 02/M12 A3022 RMK A01 T00221118  RH  035%=      5-min Rain = 0
KST2 112018Z 35007KT 02/M12 A3022 RMK A01 T00191118  RH  035%=      5-min Rain = 0
KST2 112019Z 34005KT 02/M12 A3021 RMK A01 T00211116  RH  035%=      5-min Rain = 0
KST2 112020Z 34007G14KT 02/M12 A3021 RMK A01 T00211117  RH  035%=      5-min Rain = 0
KST2 112021Z 00010KT 02/M11 A3021 RMK A01 T00231114  RH  036%=      5-min Rain = 0
KST2 112022Z 01011KT 03/M11 A3021 RMK A01 T00261113  RH  035%=      5-min Rain = 0
KST2 112023Z 00011KT 03/M11 A3021 RMK A01 T00271114  RH  035%=      5-min Rain = 0
KST2 112024Z 35012KT 03/M12 A3021 RMK A01 T00271115  RH  034%=      5-min Rain = 0
KST2 112025Z 34010KT 03/M12 A3021 RMK A01 T00261116  RH  034%=      5-min Rain = 0
KST2 112026Z 34008KT 03/M11 A3021 RMK A01 T00281114  RH  034%=      5-min Rain = 0
KST2 112027Z 34010KT 03/M12 A3021 RMK A01 T00281115  RH  034%=      5-min Rain = 0
KST2 112028Z 35014KT 03/M11 A3022 RMK A01 T00281114  RH  034%=      5-min Rain = 0
KST2 112029Z 36013KT 03/M12 A3021 RMK A01 T00281115  RH  034%=      5-min Rain = 0
KST2 112030Z 01010KT 03/M12 A3021 RMK A01 T00281115  RH  034%=      5-min Rain = 0
KST2 112031Z 36010KT 03/M12 A3021 RMK A01 T00271116  RH  034%=      5-min Rain = 0
KST2 112032Z 34010KT 03/M12 A3021 RMK A01 T00261116  RH  034%=      5-min Rain = 0
KST2 112033Z 35012KT 03/M12 A3021 RMK A01 T00251116  RH  035%=      5-min Rain = 0
KST2 112034Z 01013KT 03/M11 A3022 RMK A01 T00291113  RH  034%=      5-min Rain = 0
KST2 112035Z 03010KT 03/M12 A3022 RMK A01 T00281116  RH  034%=      5-min Rain = 0
KST2 112036Z 02008KT 03/M12 A3021 RMK A01 T00251117  RH  034%=      5-min Rain = 0
KST2 112037Z 01009KT 03/M11 A3021 RMK A01 T00271114  RH  035%=      5-min Rain = 0
KST2 112038Z 01008KT 03/M11 A3021 RMK A01 T00281113  RH  034%=      5-min Rain = 0
KST2 112039Z 02008KT 03/M11 A3021 RMK A01 T00301114  RH  034%=      5-min Rain = 0
KST2 112040Z 01007KT 03/M12 A3021 RMK A01 T00261118  RH  034%=      5-min Rain = 0
KST2 112041Z 01006KT 03/M12 A3021 RMK A01 T00251116  RH  034%=      5-min Rain = 0
KST2 112042Z 36012G17KT 03/M11 A3021 RMK A01 T00271114  RH  035%=      5-min Rain = 0
KST2 112043Z 36011KT 03/M11 A3021 RMK A01 T00311112  RH  034%=      5-min Rain = 0
KST2 112044Z 00013KT 03/M11 A3021 RMK A01 T00331111  RH  034%=      5-min Rain = 0
KST2 112045Z 35011KT 04/M11 A3021 RMK A01 T00381110  RH  033%=      5-min Rain = 0
KST2 112046Z 01008KT 03/M12 A3021 RMK A01 T00331117  RH  032%=      5-min Rain = 0
KST2 112047Z 02010KT 03/M12 A3021 RMK A01 T00301117  RH  033%=      5-min Rain = 0
KST2 112048Z 01009KT 03/M12 A3021 RMK A01 T00301115  RH  034%=      5-min Rain = 0
KST2 112049Z 01006KT 03/M12 A3021 RMK A01 T00301115  RH  033%=      5-min Rain = 0
KST2 112050Z 01006KT 03/M12 A3021 RMK A01 T00301115  RH  034%=      5-min Rain = 0
KST2 112051Z 01008KT 03/M11 A3021 RMK A01 T00301114  RH  034%=      5-min Rain = 0
KST2 112052Z 00009KT 03/M11 A3021 RMK A01 T00321113  RH  034%=      5-min Rain = 0
KST2 112053Z 35007KT 03/M11 A3021 RMK A01 T00321114  RH  033%=      5-min Rain = 0
KST2 112054Z 34011KT 03/M11 A3021 RMK A01 T00331114  RH  033%=      5-min Rain = 0
KST2 112055Z 34008KT 03/M12 A3021 RMK A01 T00321115  RH  033%=      5-min Rain = 0
KST2 112056Z 00011KT 03/M11 A3021 RMK A01 T00341112  RH  033%=      5-min Rain = 0
KST2 112057Z 35012KT 04/M11 A3021 RMK A01 T00351113  RH  033%=      5-min Rain = 0
KST2 112058Z 36013KT 04/M11 A3021 RMK A01 T00371112  RH  033%=      5-min Rain = 0
KST2 112059Z 00013KT 04/M11 A3021 RMK A01 T00361113  RH  032%=      5-min Rain = 0
KST2 112100Z 00013KT 04/M12 A3021 RMK A01 T00351115  RH  032%=      5-min Rain = 0
KST2 112101Z 35012KT 03/M11 A3021 RMK A01 T00341114  RH  033%=      5-min Rain = 0
KST2 112102Z 35012KT 04/M11 A3021 RMK A01 T00351113  RH  033%=      5-min Rain = 0
KST2 112103Z 36010KT 04/M11 A3021 RMK A01 T00361113  RH  033%=      5-min Rain = 0
KST2 112104Z 34008KT 04/M11 A3021 RMK A01 T00351114  RH  033%=      5-min Rain = 0
KST2 112105Z 00009KT 03/M11 A3021 RMK A01 T00341114  RH  033%=      5-min Rain = 0
KST2 112106Z 01007KT 04/M11 A3021 RMK A01 T00361112  RH  033%=      5-min Rain = 0
KST2 112107Z 35006KT 04/M11 A3021 RMK A01 T00361113  RH  033%=      5-min Rain = 0
KST2 112108Z 00008G14KT 04/M11 A3021 RMK A01 T00361113  RH  032%=      5-min Rain = 0
KST2 112109Z 01011KT 04/M11 A3021 RMK A01 T00381112  RH  033%=      5-min Rain = 0
KST2 112110Z 01009KT 04/M11 A3021 RMK A01 T00381112  RH  032%=      5-min Rain = 0
KST2 112111Z 35010KT 04/M11 A3021 RMK A01 T00391111  RH  032%=      5-min Rain = 0
KST2 112112Z 35015KT 04/M11 A3021 RMK A01 T00411111  RH  032%=      5-min Rain = 0
KST2 112113Z 35012KT 04/M11 A3021 RMK A01 T00411112  RH  032%=      5-min Rain = 0
KST2 112114Z 00013KT 04/M11 A3021 RMK A01 T00411112  RH  032%=      5-min Rain = 0
KST2 112115Z 01013KT 04/M11 A3021 RMK A01 T00391113  RH  032%=      5-min Rain = 0
KST2 112116Z 35009KT 04/M11 A3021 RMK A01 T00401112  RH  032%=      5-min Rain = 0
KST2 112117Z 34007KT 04/M11 A3021 RMK A01 T00391113  RH  032%=      5-min Rain = 0
KST2 112118Z 34009KT 04/M11 A3021 RMK A01 T00381114  RH  032%=      5-min Rain = 0
KST2 112119Z 33011KT 04/M11 A3021 RMK A01 T00381112  RH  033%=      5-min Rain = 0
KST2 112120Z 32008KT 04/M11 A3021 RMK A01 T00411111  RH  032%=      5-min Rain = 0
KST2 112121Z 33008KT 04/M11 A3021 RMK A01 T00391114  RH  032%=      5-min Rain = 0
KST2 112122Z 35012KT 04/M11 A3021 RMK A01 T00381113  RH  032%=      5-min Rain = 0
KST2 112123Z 35012KT 04/M11 A3021 RMK A01 T00391112  RH  032%=      5-min Rain = 0
KST2 112124Z 34009KT 04/M11 A3021 RMK A01 T00381112  RH  032%=      5-min Rain = 0
KST2 112125Z 34012KT 04/M11 A3021 RMK A01 T00411110  RH  032%=      5-min Rain = 0
KST2 112126Z 35012KT 04/M11 A3021 RMK A01 T00421111  RH  032%=      5-min Rain = 0
KST2 112127Z 34012KT 04/M11 A3021 RMK A01 T00421111  RH  032%=      5-min Rain = 0
KST2 112128Z 35010KT 04/M11 A3021 RMK A01 T00411112  RH  032%=      5-min Rain = 0
KST2 112129Z 35009KT 04/M11 A3021 RMK A01 T00411112  RH  032%=      5-min Rain = 0
KST2 112130Z 34012KT 04/M11 A3021 RMK A01 T00411111  RH  032%=      5-min Rain = 0
KST2 112131Z 00014KT 04/M11 A3021 RMK A01 T00441110  RH  032%=      5-min Rain = 0
KST2 112132Z 00012KT 04/M11 A3021 RMK A01 T00421112  RH  032%=      5-min Rain = 0
KST2 112133Z 01010KT 04/M11 A3021 RMK A01 T00411112  RH  032%=      5-min Rain = 0
KST2 112134Z 36012KT 04/M11 A3021 RMK A01 T00431109  RH  032%=      5-min Rain = 0
KST2 112135Z 35010KT 05/M11 A3021 RMK A01 T00451110  RH  032%=      5-min Rain = 0
KST2 112136Z 35009KT 05/M11 A3021 RMK A01 T00471108  RH  031%=      5-min Rain = 0
KST2 112137Z 00013KT 05/M11 A3021 RMK A01 T00481109  RH  031%=      5-min Rain = 0
KST2 112138Z 35012KT 05/M11 A3021 RMK A01 T00471110  RH  031%=      5-min Rain = 0
KST2 112139Z 35009KT 05/M11 A3021 RMK A01 T00461111  RH  031%=      5-min Rain = 0
KST2 112140Z 00009KT 05/M11 A3021 RMK A01 T00451110  RH  031%=      5-min Rain = 0
KST2 112141Z 00009KT 04/M11 A3021 RMK A01 T00441112  RH  031%=      5-min Rain = 0
KST2 112142Z 00008KT 04/M11 A3021 RMK A01 T00431112  RH  031%=      5-min Rain = 0
KST2 112143Z 02006KT 04/M11 A3021 RMK A01 T00421112  RH  032%=      5-min Rain = 0
KST2 112144Z 01005KT 04/M11 A3021 RMK A01 T00431111  RH  032%=      5-min Rain = 0
KST2 112145Z 00006KT 04/M11 A3021 RMK A01 T00441110  RH  032%=      5-min Rain = 0
KST2 112146Z 03009KT 05/M11 A3021 RMK A01 T00461108  RH  032%=      5-min Rain = 0
KST2 112147Z 03008KT 05/M11 A3021 RMK A01 T00491108  RH  031%=      5-min Rain = 0
KST2 112148Z 03008KT 05/M11 A3021 RMK A01 T00481109  RH  031%=      5-min Rain = 0
KST2 112149Z 01007KT 05/M11 A3021 RMK A01 T00481109  RH  031%=      5-min Rain = 0
KST2 112150Z 35011KT 05/M11 A3021 RMK A01 T00491108  RH  031%=      5-min Rain = 0
KST2 112151Z 35013KT 05/M11 A3021 RMK A01 T00501107  RH  031%=      5-min Rain = 0
KST2 112152Z 36012KT 05/M11 A3021 RMK A01 T00481109  RH  031%=      5-min Rain = 0
KST2 112153Z 35010KT 05/M11 A3021 RMK A01 T00471109  RH  031%=      5-min Rain = 0
KST2 112154Z 34008KT 05/M11 A3021 RMK A01 T00471109  RH  031%=      5-min Rain = 0
KST2 112155Z 00009KT 05/M11 A302 RMK A01 T00471108  RH  031%=      5-min Rain = 0
KST2 112156Z 36007KT 05/M11 A3021 RMK A01 T00471109  RH  031%=      5-min Rain = 0
KST2 112157Z 35006KT 05/M11 A3021 RMK A01 T00471108  RH  032%=      5-min Rain = 0
KST2 112158Z 02005KT 05/M11 A3021 RMK A01 T00481108  RH  031%=      5-min Rain = 0
KST2 112159Z 01008KT 05/M11 A3021 RMK A01 T00471109  RH  031%=      5-min Rain = 0
KST2 112200Z 01011KT 05/M11 A3021 RMK A01 T00481107  RH  032%=      5-min Rain = 0
KST2 112201Z 02009KT 05/M11 A3021 RMK A01 T00491107  RH  031%=      5-min Rain = 0
KST2 112202Z 01010KT 05/M11 A3021 RMK A01 T00491107  RH  031%=      5-min Rain = 0
KST2 112203Z 01009KT 05/M11 A3021 RMK A01 T00501107  RH  031%=      5-min Rain = 0
KST2 112204Z 01010KT 05/M11 A3021 RMK A01 T00521105  RH  031%=      5-min Rain = 0
KST2 112205Z 01013KT 05/M11 A302 RMK A01 T00531106  RH  031%=      5-min Rain = 0
KST2 112206Z 01013KT 05/M11 A302 RMK A01 T00531107  RH  030%=      5-min Rain = 0
KST2 112207Z 01011KT 05/M11 A302 RMK A01 T00501109  RH  031%=      5-min Rain = 0
KST2 112208Z 01010KT 05/M11 A302 RMK A01 T00491109  RH  031%=      5-min Rain = 0
KST2 112209Z 02008KT 05/M11 A302 RMK A01 T00481109  RH  031%=      5-min Rain = 0
KST2 112210Z 01007KT 05/M11 A302 RMK A01 T00461110  RH  031%=      5-min Rain = 0
KST2 112211Z 36005KT 05/M11 A302 RMK A01 T00451110  RH  031%=      5-min Rain = 0
KST2 112212Z 01008KT 04/M11 A302 RMK A01 T00441110  RH  032%=      5-min Rain = 0
KST2 112213Z 01007KT 04/M11 A3021 RMK A01 T00441110  RH  032%=      5-min Rain = 0
KST2 112214Z 01005KT 05/M11 A302 RMK A01 T00451109  RH  032%=      5-min Rain = 0
KST2 112215Z 00004KT 04/M11 A302 RMK A01 T00441110  RH  032%=      5-min Rain = 0
KST2 112216Z 35004KT 04/M11 A302 RMK A01 T00421111  RH  032%=      5-min Rain = 0
KST2 112217Z 35003KT 04/M11 A302 RMK A01 T00421110  RH  032%=      5-min Rain = 0
KST2 112218Z 03004KT 04/M11 A302 RMK A01 T00421110  RH  032%=      5-min Rain = 0
KST2 112219Z 04008KT 04/M11 A302 RMK A01 T00441108  RH  032%=      5-min Rain = 0
KST2 112220Z 01007KT 05/M11 A302 RMK A01 T00471107  RH  032%=      5-min Rain = 0
KST2 112221Z 00006KT 05/M11 A302 RMK A01 T00481108  RH  031%=      5-min Rain = 0
KST2 112222Z 36004KT 05/M11 A302 RMK A01 T00471109  RH  031%=      5-min Rain = 0
KST2 112223Z 04003KT 05/M11 A302 RMK A01 T00461109  RH  031%=      5-min Rain = 0
KST2 112224Z 04004KT 05/M11 A302 RMK A01 T00451110  RH  032%=      5-min Rain = 0
KST2 112225Z 06005KT 04/M11 A302 RMK A01 T00441109  RH  032%=      5-min Rain = 0
KST2 112226Z 07003KT 04/M11 A302 RMK A01 T00441109  RH  032%=      5-min Rain = 0
KST2 112227Z 06004KT 04/M11 A302 RMK A01 T00441109  RH  032%=      5-min Rain = 0
KST2 112228Z 04004KT 05/M11 A302 RMK A01 T00451109  RH  032%=      5-min Rain = 0
KST2 112229Z 04002KT 04/M11 A302 RMK A01 T00441110  RH  032%=      5-min Rain = 0
KST2 112230Z 01002KT 04/M11 A302 RMK A01 T00441110  RH  032%=      5-min Rain = 0
KST2 112231Z 33003KT 05/M11 A302 RMK A01 T00451109  RH  032%=      5-min Rain = 0
KST2 112232Z 34005KT 05/M11 A302 RMK A01 T00471107  RH  032%=      5-min Rain = 0
KST2 112233Z 36005KT 05/M11 A302 RMK A01 T00481106  RH  032%=      5-min Rain = 0
KST2 112234Z 04005KT 05/M11 A302 RMK A01 T00501106  RH  031%=      5-min Rain = 0
KST2 112235Z 03006KT 05/M11 A302 RMK A01 T00511106  RH  031%=      5-min Rain = 0
KST2 112236Z 03007KT 05/M11 A302 RMK A01 T00511107  RH  031%=      5-min Rain = 0
KST2 112237Z 03006KT 05/M11 A302 RMK A01 T00511107  RH  031%=      5-min Rain = 0
KST2 112238Z 01008KT 05/M11 A302 RMK A01 T00511107  RH  031%=      5-min Rain = 0
KST2 112239Z 02009KT 05/M11 A302 RMK A01 T00521105  RH  031%=      5-min Rain = 0
KST2 112240Z 03009KT 05/M11 A302 RMK A01 T00531105  RH  031%=      5-min Rain = 0
KST2 112241Z 03010KT 05/M11 A302 RMK A01 T00541105  RH  031%=      5-min Rain = 0
KST2 112242Z 02009KT 05/M11 A302 RMK A01 T00541106  RH  031%=      5-min Rain = 0
KST2 112243Z 03009KT 05/M11 A302 RMK A01 T00531106  RH  031%=      5-min Rain = 0
KST2 112244Z 03009KT 05/M11 A302 RMK A01 T00521107  RH  031%=      5-min Rain = 0
KST2 112245Z 02008KT 05/M11 A302 RMK A01 T00511107  RH  031%=      5-min Rain = 0
KST2 112246Z 02008KT 05/M11 A302 RMK A01 T00491107  RH  031%=      5-min Rain = 0
KST2 112247Z 03007KT 05/M11 A302 RMK A01 T00491107  RH  031%=      5-min Rain = 0
KST2 112248Z 03006KT 05/M11 A302 RMK A01 T00491107  RH  031%=      5-min Rain = 0
KST2 112249Z 04005KT 05/M11 A302 RMK A01 T00491107  RH  031%=      5-min Rain = 0
KST2 112250Z 03005KT 05/M11 A302 RMK A01 T00511106  RH  031%=      5-min Rain = 0
KST2 112251Z 03007KT 05/M11 A302 RMK A01 T00521106  RH  031%=      5-min Rain = 0
KST2 112252Z 03008KT 05/M11 A302 RMK A01 T00531105  RH  031%=      5-min Rain = 0
KST2 112253Z 01010KT 05/M11 A302 RMK A01 T00531106  RH  031%=      5-min Rain = 0
KST2 112254Z 01010KT 05/M11 A302 RMK A01 T00531106  RH  031%=      5-min Rain = 0
KST2 112255Z 02008KT 05/M11 A302 RMK A01 T00531106  RH  031%=      5-min Rain = 0
KST2 112256Z 02007KT 05/M11 A302 RMK A01 T00531106  RH  031%=      5-min Rain = 0
KST2 112257Z 02009KT 05/M11 A302 RMK A01 T00531106  RH  031%=      5-min Rain = 0
KST2 112258Z 01007KT 05/M11 A302 RMK A01 T00541106  RH  031%=      5-min Rain = 0
KST2 112259Z 02009KT 05/M11 A302 RMK A01 T00541106  RH  031%=      5-min Rain = 0
KST2 112300Z 02009KT 06/M11 A302 RMK A01 T00551105  RH  030%=      5-min Rain = 0
KST2 112301Z 03009KT 05/M11 A302 RMK A01 T00531107  RH  030%=      5-min Rain = 0
KST2 112302Z 04007KT 05/M11 A302 RMK A01 T00531107  RH  030%=      5-min Rain = 0
KST2 112303Z 03007KT 05/M11 A302 RMK A01 T00521107  RH  031%=      5-min Rain = 0
KST2 112304Z 04006KT 05/M11 A302 RMK A01 T00521107  RH  031%=      5-min Rain = 0
KST2 112305Z 04006KT 05/M11 A302 RMK A01 T00511107  RH  031%=      5-min Rain = 0
KST2 112306Z 02004KT 05/M11 A302 RMK A01 T00501107  RH  031%=      5-min Rain = 0
KST2 112307Z 03004KT 05/M11 A302 RMK A01 T00511106  RH  031%=      5-min Rain = 0
KST2 112308Z 03005KT 05/M11 A302 RMK A01 T00521106  RH  031%=      5-min Rain = 0
KST2 112309Z 03005KT 05/M11 A302 RMK A01 T00531106  RH  031%=      5-min Rain = 0
KST2 112310Z 03005KT 05/M11 A302 RMK A01 T00531106  RH  031%=      5-min Rain = 0
KST2 112311Z 03006KT 05/M11 A302 RMK A01 T00541106  RH  031%=      5-min Rain = 0
KST2 112312Z 02007KT 05/M11 A302 RMK A01 T00541106  RH  031%=      5-min Rain = 0
KST2 112313Z 03006KT 05/M11 A302 RMK A01 T00541106  RH  030%=      5-min Rain = 0
KST2 112314Z 04005KT 05/M11 A302 RMK A01 T00541106  RH  031%=      5-min Rain = 0
KST2 112315Z 04005KT 05/M11 A302 RMK A01 T00531106  RH  031%=      5-min Rain = 0
KST2 112316Z 02006KT 05/M11 A3021 RMK A01 T00531105  RH  031%=      5-min Rain = 0
KST2 112317Z 03008KT 05/M11 A3021 RMK A01 T00531105  RH  031%=      5-min Rain = 0
KST2 112318Z 03007KT 05/M11 A3021 RMK A01 T00531106  RH  031%=      5-min Rain = 0
KST2 112319Z 03006KT 05/M11 A3021 RMK A01 T00531106  RH  031%=      5-min Rain = 0
KST2 112320Z 03007KT 05/M11 A302 RMK A01 T00541105  RH  031%=      5-min Rain = 0
KST2 112321Z 01008KT 06/M10 A302 RMK A01 T00561104  RH  030%=      5-min Rain = 0
KST2 112322Z 35008KT 06/M11 A302 RMK A01 T00551106  RH  030%=      5-min Rain = 0
KST2 112323Z 36007KT 05/M11 A302 RMK A01 T00541106  RH  031%=      5-min Rain = 0
KST2 112324Z 02008KT 05/M11 A302 RMK A01 T00531105  RH  031%=      5-min Rain = 0
KST2 112325Z 02007KT 05/M11 A3021 RMK A01 T00541106  RH  031%=      5-min Rain = 0
KST2 112326Z 02007KT 05/M11 A3021 RMK A01 T00541105  RH  031%=      5-min Rain = 0
KST2 112327Z 02009KT 05/M11 A3021 RMK A01 T00541106  RH  031%=      5-min Rain = 0
KST2 112328Z 02009KT 05/M11 A3021 RMK A01 T00531106  RH  031%=      5-min Rain = 0
KST2 112329Z 02008KT 05/M11 A3021 RMK A01 T00541106  RH  031%=      5-min Rain = 0
KST2 112330Z 02009KT 05/M11 A3021 RMK A01 T00531107  RH  031%=      5-min Rain = 0
KST2 112331Z 02009KT 05/M11 A3021 RMK A01 T00541106  RH  031%=      5-min Rain = 0
KST2 112332Z 01009KT 05/M11 A3021 RMK A01 T00531106  RH  031%=      5-min Rain = 0
KST2 112333Z 01009KT 05/M11 A3021 RMK A01 T00531106  RH  031%=      5-min Rain = 0
KST2 112334Z 02008KT 05/M11 A3021 RMK A01 T00531107  RH  030%=      5-min Rain = 0
KST2 112335Z 03009KT 05/M11 A3021 RMK A01 T00531107  RH  030%=      5-min Rain = 0
KST2 112336Z 03009KT 05/M11 A3021 RMK A01 T00521107  RH  031%=      5-min Rain = 0
KST2 112337Z 02008KT 05/M11 A3021 RMK A01 T00521108  RH  031%=      5-min Rain = 0
KST2 112338Z 02008KT 05/M11 A3021 RMK A01 T00511107  RH  031%=      5-min Rain = 0
KST2 112339Z 03006KT 05/M11 A3021 RMK A01 T00511107  RH  031%=      5-min Rain = 0
KST2 112340Z 03008KT 05/M11 A3021 RMK A01 T00511107  RH  031%=      5-min Rain = 0
KST2 112341Z 02009KT 05/M11 A3021 RMK A01 T00501108  RH  031%=      5-min Rain = 0
KST2 112342Z 02010KT 05/M11 A3021 RMK A01 T00491108  RH  031%=      5-min Rain = 0
KST2 112343Z 02009KT 05/M11 A3021 RMK A01 T00481109  RH  031%=      5-min Rain = 0
KST2 112344Z 01007KT 05/M11 A3021 RMK A01 T00471109  RH  031%=      5-min Rain = 0
KST2 112345Z 01007KT 05/M11 A3021 RMK A01 T00471109  RH  031%=      5-min Rain = 0
KST2 112346Z 02008KT 05/M11 A3021 RMK A01 T00461110  RH  031%=      5-min Rain = 0
KST2 112347Z 02009KT 05/M11 A3021 RMK A01 T00461110  RH  031%=      5-min Rain = 0
KST2 112348Z 02008KT 05/M11 A3021 RMK A01 T00461109  RH  031%=      5-min Rain = 0
KST2 112349Z 02008KT 05/M11 A3022 RMK A01 T00461109  RH  032%=      5-min Rain = 0
KST2 112350Z 02008KT 05/M11 A3022 RMK A01 T00451109  RH  032%=      5-min Rain = 0
KST2 112351Z 02008KT 04/M11 A3022 RMK A01 T00441110  RH  032%=      5-min Rain = 0
KST2 112352Z 02007KT 04/M11 A3022 RMK A01 T00441110  RH  032%=      5-min Rain = 0
KST2 112353Z 02007KT 05/M11 A3022 RMK A01 T00451109  RH  032%=      5-min Rain = 0
KST2 112354Z 02007KT 05/M11 A3022 RMK A01 T00451109  RH  032%=      5-min Rain = 0
KST2 112355Z 02008KT 05/M11 A3022 RMK A01 T00451109  RH  032%=      5-min Rain = 0
KST2 112356Z 01008KT 04/M11 A3022 RMK A01 T00441110  RH  032%=      5-min Rain = 0
KST2 112357Z 02008KT 04/M11 A3022 RMK A01 T00441110  RH  032%=      5-min Rain = 0
KST2 112358Z 02007KT 04/M11 A3022 RMK A01 T00441110  RH  032%=      5-min Rain = 0
KST2 112359Z 02007KT 04/M11 A3022 RMK A01 T00431111  RH  032%=      5-min Rain = 0
KST2 120000Z 02007KT 04/M11 A3022 RMK A01 T00421112  RH  032%=      5-min Rain = 0
KST2 120001Z 01007KT 04/M11 A3022 RMK A01 T00421112  RH  032%=      5-min Rain = 0
KST2 120002Z 01007KT 04/M11 A3022 RMK A01 T00421112  RH  032%=      5-min Rain = 0
KST2 120003Z 01008KT 04/M11 A3022 RMK A01 T00411113  RH  032%=      5-min Rain = 0
KST2 120004Z 01007KT 04/M11 A3022 RMK A01 T00411112  RH  032%=      5-min Rain = 0
KST2 120005Z 01007KT 04/M11 A3022 RMK A01 T00411112  RH  032%=      5-min Rain = 0
KST2 120006Z 01007KT 04/M11 A3022 RMK A01 T00411112  RH  032%=      5-min Rain = 0
KST2 120007Z 01007KT 04/M11 A3022 RMK A01 T00411112  RH  032%=      5-min Rain = 0
KST2 120008Z 01007KT 04/M11 A3022 RMK A01 T00401113  RH  032%=      5-min Rain = 0
KST2 120009Z 01007KT 04/M11 A3022 RMK A01 T00401113  RH  032%=      5-min Rain = 0
KST2 120010Z 01007KT 04/M11 A3022 RMK A01 T00391113  RH  032%=      5-min Rain = 0
KST2 120011Z 02007KT 04/M11 A3023 RMK A01 T00391113  RH  032%=      5-min Rain = 0
KST2 120012Z 02007KT 04/M11 A3023 RMK A01 T00391113  RH  032%=      5-min Rain = 0
KST2 120013Z 02007KT 04/M11 A3023 RMK A01 T00381113  RH  032%=      5-min Rain = 0
KST2 120014Z 02007KT 04/M11 A3023 RMK A01 T00381113  RH  032%=      5-min Rain = 0
KST2 120015Z 02006KT 04/M11 A3023 RMK A01 T00371114  RH  032%=      5-min Rain = 0
KST2 120016Z 02006KT 04/M11 A3023 RMK A01 T00371114  RH  032%=      5-min Rain = 0
KST2 120017Z 02006KT 04/M11 A3023 RMK A01 T00371113  RH  032%=      5-min Rain = 0
KST2 120018Z 02007KT 04/M11 A3023 RMK A01 T00371113  RH  033%=      5-min Rain = 0
KST2 120019Z 02007KT 04/M11 A3023 RMK A01 T00361113  RH  033%=      5-min Rain = 0
KST2 120020Z 02006KT 04/M11 A3023 RMK A01 T00361113  RH  033%=      5-min Rain = 0
KST2 120021Z 02006KT 04/M11 A3023 RMK A01 T00351114  RH  033%=      5-min Rain = 0
KST2 120022Z 02006KT 04/M11 A3023 RMK A01 T00351114  RH  033%=      5-min Rain = 0
KST2 120023Z 02006KT 03/M11 A3023 RMK A01 T00341114  RH  033%=      5-min Rain = 0
KST2 120024Z 02006KT 03/M12 A3023 RMK A01 T00341115  RH  033%=      5-min Rain = 0
KST2 120025Z 02006KT 03/M12 A3023 RMK A01 T00331115  RH  033%=      5-min Rain = 0
KST2 120026Z 02006KT 03/M12 A3023 RMK A01 T00331116  RH  033%=      5-min Rain = 0
KST2 120027Z 02006KT 03/M12 A3024 RMK A01 T00321116  RH  033%=      5-min Rain = 0
KST2 120028Z 02007KT 03/M12 A3023 RMK A01 T00311117  RH  033%=      5-min Rain = 0
KST2 120029Z 02006KT 03/M12 A3023 RMK A01 T00311117  RH  033%=      5-min Rain = 0
KST2 120030Z 02006KT 03/M12 A3023 RMK A01 T00301117  RH  033%=      5-min Rain = 0
KST2 120031Z 02006KT 03/M12 A3023 RMK A01 T00301118  RH  033%=      5-min Rain = 0
KST2 120032Z 02007KT 03/M12 A3023 RMK A01 T00291118  RH  033%=      5-min Rain = 0
KST2 120033Z 02007KT 03/M12 A3023 RMK A01 T00281118  RH  033%=      5-min Rain = 0
KST2 120034Z 02007KT 03/M12 A3023 RMK A01 T00281118  RH  033%=      5-min Rain = 0
KST2 120035Z 02007KT 03/M12 A3023 RMK A01 T00281118  RH  033%=      5-min Rain = 0
KST2 120036Z 02007KT 03/M12 A3023 RMK A01 T00281118  RH  033%=      5-min Rain = 0
KST2 120037Z 02006KT 03/M12 A3023 RMK A01 T00271118  RH  033%=      5-min Rain = 0
KST2 120038Z 02007KT 03/M12 A3023 RMK A01 T00271118  RH  033%=      5-min Rain = 0
KST2 120039Z 02006KT 03/M12 A3023 RMK A01 T00261119  RH  033%=      5-min Rain = 0
KST2 120040Z 02006KT 03/M12 A3023 RMK A01 T00251120  RH  034%=      5-min Rain = 0
KST2 120041Z 02006KT 02/M12 A3023 RMK A01 T00241120  RH  034%=      5-min Rain = 0
KST2 120042Z 02007KT 02/M12 A3023 RMK A01 T00241120  RH  034%=      5-min Rain = 0
KST2 120043Z 02006KT 02/M12 A3023 RMK A01 T00231120  RH  034%=      5-min Rain = 0
KST2 120044Z 02006KT 02/M12 A3023 RMK A01 T00221120  RH  034%=      5-min Rain = 0
KST2 120045Z 02006KT 02/M12 A3023 RMK A01 T00221121  RH  034%=      5-min Rain = 0
KST2 120046Z 02007KT 02/M12 A3024 RMK A01 T00211121  RH  034%=      5-min Rain = 0
KST2 120047Z 02006KT 02/M12 A3024 RMK A01 T00201121  RH  034%=      5-min Rain = 0
KST2 120048Z 02006KT 02/M12 A3024 RMK A01 T00201122  RH  034%=      5-min Rain = 0
KST2 120049Z 03006KT 02/M12 A3024 RMK A01 T00191122  RH  034%=      5-min Rain = 0
KST2 120050Z 03006KT 02/M12 A3024 RMK A01 T00191122  RH  034%=      5-min Rain = 0
KST2 120051Z 03006KT 02/M12 A3024 RMK A01 T00181122  RH  035%=      5-min Rain = 0
KST2 120052Z 03006KT 02/M12 A3024 RMK A01 T00181122  RH  035%=      5-min Rain = 0
KST2 120053Z 03006KT 02/M12 A3024 RMK A01 T00171121  RH  035%=      5-min Rain = 0
KST2 120054Z 03006KT 02/M12 A3024 RMK A01 T00171120  RH  035%=      5-min Rain = 0
KST2 120055Z 03006KT 02/M12 A3024 RMK A01 T00181120  RH  035%=      5-min Rain = 0
KST2 120056Z 03007KT 02/M12 A3024 RMK A01 T00181120  RH  035%=      5-min Rain = 0
KST2 120057Z 03007KT 02/M12 A3024 RMK A01 T00171121  RH  035%=      5-min Rain = 0
KST2 120058Z 03006KT 02/M12 A3024 RMK A01 T00161122  RH  035%=      5-min Rain = 0
KST2 120059Z 03006KT 02/M12 A3024 RMK A01 T00161122  RH  035%=      5-min Rain = 0
KST2 120100Z 02006KT 02/M12 A3024 RMK A01 T00151122  RH  035%=      5-min Rain = 0
KST2 120101Z 02006KT 01/M12 A3024 RMK A01 T00141123  RH  035%=      5-min Rain = 0
KST2 120102Z 02006KT 01/M12 A3024 RMK A01 T00131124  RH  035%=      5-min Rain = 0
KST2 120103Z 02006KT 01/M13 A3024 RMK A01 T00111126  RH  035%=      5-min Rain = 0
KST2 120104Z 02007KT 01/M13 A3024 RMK A01 T00101126  RH  035%=      5-min Rain = 0
KST2 120105Z 02007KT 01/M13 A3024 RMK A01 T00101126  RH  035%=      5-min Rain = 0
KST2 120106Z 02006KT 01/M13 A3024 RMK A01 T00091126  RH  036%=      5-min Rain = 0
KST2 120107Z 02006KT 01/M13 A3024 RMK A01 T00081127  RH  035%=      5-min Rain = 0
KST2 120108Z 01006KT 01/M13 A3024 RMK A01 T00071128  RH  036%=      5-min Rain = 0
KST2 120109Z 36006KT 01/M13 A3024 RMK A01 T00061129  RH  036%=      5-min Rain = 0
KST2 120110Z 01006KT 01/M13 A3024 RMK A01 T00051129  RH  036%=      5-min Rain = 0
KST2 120111Z 01006KT 01/M13 A3024 RMK A01 T00051128  RH  036%=      5-min Rain = 0
KST2 120112Z 01006KT 01/M13 A3024 RMK A01 T00051129  RH  036%=      5-min Rain = 0
KST2 120113Z 01006KT 01/M13 A3025 RMK A01 T00051129  RH  036%=      5-min Rain = 0
KST2 120114Z 01007KT 00/M13 A3025 RMK A01 T00041129  RH  036%=      5-min Rain = 0
KST2 120115Z 01007KT 00/M13 A3025 RMK A01 T00041129  RH  036%=      5-min Rain = 0
KST2 120116Z 01008KT 00/M13 A3025 RMK A01 T00041129  RH  036%=      5-min Rain = 0
KST2 120117Z 02008KT 00/M13 A3025 RMK A01 T00041128  RH  036%=      5-min Rain = 0
KST2 120118Z 02007KT 00/M13 A3025 RMK A01 T00041129  RH  036%=      5-min Rain = 0
KST2 120119Z 02007KT 00/M13 A3025 RMK A01 T00041129  RH  036%=      5-min Rain = 0
KST2 120120Z 02007KT 00/M13 A3025 RMK A01 T00041129  RH  036%=      5-min Rain = 0
KST2 120121Z 02007KT 00/M13 A3025 RMK A01 T00041129  RH  036%=      5-min Rain = 0
KST2 120122Z 02007KT 00/M13 A3025 RMK A01 T00041128  RH  037%=      5-min Rain = 0
KST2 120123Z 02007KT 00/M13 A3025 RMK A01 T00041128  RH  037%=      5-min Rain = 0
KST2 120124Z 02007KT 00/M13 A3025 RMK A01 T00031128  RH  037%=      5-min Rain = 0
KST2 120125Z 02007KT 00/M13 A3025 RMK A01 T00021129  RH  037%=      5-min Rain = 0
KST2 120126Z 02007KT 00/M13 A3025 RMK A01 T00021129  RH  037%=      5-min Rain = 0
KST2 120127Z 02007KT 00/M13 A3025 RMK A01 T00011128  RH  037%=      5-min Rain = 0
KST2 120128Z 02007KT 00/M13 A3025 RMK A01 T00011129  RH  037%=      5-min Rain = 0
KST2 120129Z 02007KT 00/13 A3025 RMK A01 T00-00-129  RH  037%=      5-min Rain = 0
KST2 120130Z 02007KT 00/13 A3025 RMK A01 T00-00-129  RH  037%=      5-min Rain = 0
KST2 120131Z 01007KT M00/M13 A3025 RMK A01 T10011129  RH  037%=      5-min Rain = 0
KST2 120132Z 01007KT M00/M13 A3025 RMK A01 T10011129  RH  038%=      5-min Rain = 0
KST2 120133Z 01007KT M00/M13 A3025 RMK A01 T10021129  RH  038%=      5-min Rain = 0
KST2 120134Z 01008KT M00/M13 A3025 RMK A01 T10021130  RH  038%=      5-min Rain = 0
KST2 120135Z 01008KT M00/M13 A3025 RMK A01 T10031129  RH  038%=      5-min Rain = 0
KST2 120136Z 01008KT M00/M13 A3025 RMK A01 T10031129  RH  038%=      5-min Rain = 0
KST2 120137Z 01008KT M00/M13 A3025 RMK A01 T10031129  RH  038%=      5-min Rain = 0
KST2 120138Z 01008KT M00/M13 A3025 RMK A01 T10021128  RH  038%=      5-min Rain = 0
KST2 120139Z 01008KT M00/M13 A3025 RMK A01 T10031128  RH  038%=      5-min Rain = 0
KST2 120140Z 01008KT M00/M13 A3025 RMK A01 T10031129  RH  038%=      5-min Rain = 0
KST2 120141Z 02008KT M00/M13 A3025 RMK A01 T10031129  RH  038%=      5-min Rain = 0
KST2 120142Z 02008KT M00/M13 A3025 RMK A01 T10031130  RH  038%=      5-min Rain = 0
KST2 120143Z 02008KT M00/M13 A3025 RMK A01 T10041130  RH  038%=      5-min Rain = 0
KST2 120144Z 02008KT M00/M13 A3025 RMK A01 T10041130  RH  038%=      5-min Rain = 0
KST2 120145Z 02008KT M00/M13 A3025 RMK A01 T10041130  RH  038%=      5-min Rain = 0
KST2 120146Z 01007KT M00/M13 A3025 RMK A01 T10041129  RH  038%=      5-min Rain = 0
KST2 120147Z 01007KT M00/M13 A3025 RMK A01 T10041129  RH  038%=      5-min Rain = 0
KST2 120148Z 02006KT M00/M13 A3025 RMK A01 T10041129  RH  038%=      5-min Rain = 0
KST2 120149Z 02006KT M00/M13 A3025 RMK A01 T10041129  RH  039%=      5-min Rain = 0
KST2 120150Z 02006KT M00/M13 A3025 RMK A01 T10041129  RH  038%=      5-min Rain = 0
KST2 120151Z 02006KT M01/M13 A3025 RMK A01 T10051129  RH  038%=      5-min Rain = 0
KST2 120152Z 02006KT M01/M13 A3025 RMK A01 T10051130  RH  038%=      5-min Rain = 0
KST2 120153Z 02006KT M01/M13 A3025 RMK A01 T10051129  RH  039%=      5-min Rain = 0
KST2 120154Z 03006KT M01/M13 A3025 RMK A01 T10061130  RH  038%=      5-min Rain = 0
KST2 120155Z 03006KT M01/M13 A3025 RMK A01 T10071131  RH  038%=      5-min Rain = 0
KST2 120156Z 03006KT M01/M13 A3025 RMK A01 T10071131  RH  038%=      5-min Rain = 0
KST2 120157Z 03006KT M01/M13 A3025 RMK A01 T10081132  RH  038%=      5-min Rain = 0
KST2 120158Z 03006KT M01/M13 A3026 RMK A01 T10091133  RH  038%=      5-min Rain = 0
KST2 120159Z 03006KT M01/M13 A3026 RMK A01 T10101134  RH  038%=      5-min Rain = 0
KST2 120200Z 03006KT M01/M13 A3026 RMK A01 T10111134  RH  039%=      5-min Rain = 0
KST2 120201Z 03006KT M01/M13 A3026 RMK A01 T10121133  RH  039%=      5-min Rain = 0
KST2 120202Z 03006KT M01/M13 A3026 RMK A01 T10121132  RH  040%=      5-min Rain = 0
KST2 120203Z 03006KT M01/M13 A3026 RMK A01 T10121131  RH  040%=      5-min Rain = 0
KST2 120204Z 03006KT M01/M13 A3026 RMK A01 T10121132  RH  040%=      5-min Rain = 0
KST2 120205Z 03005KT M01/M13 A3026 RMK A01 T10121131  RH  040%=      5-min Rain = 0
KST2 120206Z 03006KT M01/M13 A3026 RMK A01 T10121131  RH  040%=      5-min Rain = 0
KST2 120207Z 03006KT M01/M13 A3026 RMK A01 T10121129  RH  041%=      5-min Rain = 0
KST2 120208Z 03006KT M01/M13 A3026 RMK A01 T10121129  RH  041%=      5-min Rain = 0
KST2 120209Z 03006KT M01/M13 A3026 RMK A01 T10121129  RH  041%=      5-min Rain = 0
KST2 120210Z 03006KT M01/M13 A3026 RMK A01 T10121130  RH  040%=      5-min Rain = 0
KST2 120211Z 03006KT M01/M13 A3026 RMK A01 T10121131  RH  040%=      5-min Rain = 0
KST2 120212Z 03006KT M01/M13 A3026 RMK A01 T10131132  RH  040%=      5-min Rain = 0
KST2 120213Z 02005KT M01/M13 A3027 RMK A01 T10131132  RH  040%=      5-min Rain = 0
KST2 120214Z 03005KT M01/M13 A3027 RMK A01 T10141132  RH  040%=      5-min Rain = 0
KST2 120215Z 03005KT M01/M13 A3026 RMK A01 T10141132  RH  040%=      5-min Rain = 0
KST2 120216Z 03006KT M01/M13 A3026 RMK A01 T10141133  RH  040%=      5-min Rain = 0
KST2 120217Z 03006KT M02/M13 A3026 RMK A01 T10151134  RH  040%=      5-min Rain = 0
KST2 120218Z 03006KT M02/M13 A3026 RMK A01 T10151133  RH  040%=      5-min Rain = 0
KST2 120219Z 03006KT M02/M13 A3026 RMK A01 T10151132  RH  041%=      5-min Rain = 0
KST2 120220Z 03006KT M01/M13 A3026 RMK A01 T10141131  RH  041%=      5-min Rain = 0
KST2 120221Z 03006KT M01/M13 A3026 RMK A01 T10141131  RH  041%=      5-min Rain = 0
KST2 120222Z 03006KT M01/M13 A3026 RMK A01 T10141131  RH  041%=      5-min Rain = 0
KST2 120223Z 03006KT M01/M13 A3026 RMK A01 T10141130  RH  041%=      5-min Rain = 0
KST2 120224Z 03007KT M01/M13 A3026 RMK A01 T10141130  RH  041%=      5-min Rain = 0
KST2 120225Z 03007KT M02/M13 A3026 RMK A01 T10151131  RH  041%=      5-min Rain = 0
KST2 120226Z 02006KT M02/M13 A3026 RMK A01 T10161134  RH  040%=      5-min Rain = 0
KST2 120227Z 02006KT M02/M14 A3027 RMK A01 T10181136  RH  040%=      5-min Rain = 0
KST2 120228Z 02006KT M02/M14 A3027 RMK A01 T10201138  RH  040%=      5-min Rain = 0
KST2 120229Z 03007KT M02/M14 A3027 RMK A01 T10201138  RH  040%=      5-min Rain = 0
KST2 120230Z 03006KT M02/M14 A3027 RMK A01 T10211138  RH  040%=      5-min Rain = 0
KST2 120231Z 03006KT M02/M14 A3027 RMK A01 T10221138  RH  040%=      5-min Rain = 0
KST2 120232Z 03006KT M02/M14 A3027 RMK A01 T10221139  RH  040%=      5-min Rain = 0
KST2 120233Z 03005KT M02/M14 A3027 RMK A01 T10221138  RH  041%=      5-min Rain = 0
KST2 120234Z 04006KT M02/M14 A3027 RMK A01 T10221137  RH  041%=      5-min Rain = 0
KST2 120235Z 04006KT M02/M13 A3027 RMK A01 T10221133  RH  042%=      5-min Rain = 0
KST2 120236Z 04006KT M02/M13 A3027 RMK A01 T10201129  RH  043%=      5-min Rain = 0
KST2 120237Z 04006KT M02/M13 A3027 RMK A01 T10191125  RH  044%=      5-min Rain = 0
KST2 120238Z 04006KT M02/M13 A3027 RMK A01 T10181125  RH  044%=      5-min Rain = 0
KST2 120239Z 04006KT M02/M13 A3027 RMK A01 T10181128  RH  043%=      5-min Rain = 0
KST2 120240Z 04006KT M02/M13 A3027 RMK A01 T10211130  RH  043%=      5-min Rain = 0
KST2 120241Z 04007KT M02/M13 A3027 RMK A01 T10221127  RH  044%=      5-min Rain = 0
KST2 120242Z 04007KT M02/M13 A3027 RMK A01 T10211126  RH  045%=      5-min Rain = 0
KST2 120243Z 04006KT M02/M13 A3027 RMK A01 T10201127  RH  044%=      5-min Rain = 0
KST2 120244Z 04006KT M02/M13 A3027 RMK A01 T10201128  RH  044%=      5-min Rain = 0
KST2 120245Z 04006KT M02/M13 A3027 RMK A01 T10211128  RH  044%=      5-min Rain = 0
KST2 120246Z 04006KT M02/M13 A3027 RMK A01 T10211128  RH  044%=      5-min Rain = 0
KST2 120247Z 04005KT M02/M13 A3027 RMK A01 T10201127  RH  044%=      5-min Rain = 0
KST2 120248Z 04005KT M02/M13 A3027 RMK A01 T10201126  RH  044%=      5-min Rain = 0
KST2 120249Z 04005KT M02/M13 A3027 RMK A01 T10201125  RH  044%=      5-min Rain = 0
KST2 120250Z 04005KT M02/M13 A3027 RMK A01 T10191125  RH  044%=      5-min Rain = 0
KST2 120251Z 04005KT M02/M13 A3027 RMK A01 T10191125  RH  044%=      5-min Rain = 0
KST2 120252Z 04005KT M02/M13 A3028 RMK A01 T10191125  RH  044%=      5-min Rain = 0
KST2 120253Z 04005KT M02/M13 A3028 RMK A01 T10191125  RH  044%=      5-min Rain = 0
KST2 120254Z 04005KT M02/M12 A3028 RMK A01 T10191124  RH  045%=      5-min Rain = 0
KST2 120255Z 04004KT M02/M12 A3028 RMK A01 T10191124  RH  045%=      5-min Rain = 0
KST2 120256Z 05004KT M02/M12 A3028 RMK A01 T10201124  RH  045%=      5-min Rain = 0
KST2 120257Z 05004KT M02/M12 A3028 RMK A01 T10201124  RH  045%=      5-min Rain = 0
KST2 120258Z 05004KT M02/M12 A3028 RMK A01 T10201122  RH  045%=      5-min Rain = 0
KST2 120259Z 04004KT M02/M12 A3028 RMK A01 T10191121  RH  046%=      5-min Rain = 0
KST2 120300Z 05004KT M02/M12 A3028 RMK A01 T10181119  RH  046%=      5-min Rain = 0
KST2 120301Z 05004KT M02/M12 A3028 RMK A01 T10181117  RH  047%=      5-min Rain = 0
KST2 120302Z 05004KT M02/M12 A3028 RMK A01 T10171116  RH  047%=      5-min Rain = 0
KST2 120303Z 05004KT M02/M12 A3028 RMK A01 T10161115  RH  047%=      5-min Rain = 0
KST2 120304Z 05004KT M02/M12 A3028 RMK A01 T10151116  RH  046%=      5-min Rain = 0
KST2 120305Z 05004KT M01/M12 A3028 RMK A01 T10141116  RH  046%=      5-min Rain = 0
KST2 120306Z 06004KT M01/M12 A3028 RMK A01 T10141116  RH  046%=      5-min Rain = 0
KST2 120307Z 06004KT M01/M12 A3028 RMK A01 T10131116  RH  045%=      5-min Rain = 0
KST2 120308Z 06005KT M01/M12 A3028 RMK A01 T10131116  RH  045%=      5-min Rain = 0
KST2 120309Z 06005KT M01/M12 A3028 RMK A01 T10121115  RH  045%=      5-min Rain = 0
KST2 120310Z 05005KT M01/M12 A3028 RMK A01 T10111116  RH  045%=      5-min Rain = 0
KST2 120311Z 05006KT M01/M12 A3028 RMK A01 T10111117  RH  045%=      5-min Rain = 0
KST2 120312Z 05006KT M01/M12 A3028 RMK A01 T10121118  RH  044%=      5-min Rain = 0
KST2 120313Z 05006KT M01/M12 A3028 RMK A01 T10121119  RH  044%=      5-min Rain = 0
KST2 120314Z 05006KT M01/M12 A3028 RMK A01 T10131120  RH  044%=      5-min Rain = 0
KST2 120315Z 05006KT M01/M12 A3028 RMK A01 T10131121  RH  044%=      5-min Rain = 0
KST2 120316Z 05006KT M01/M12 A3028 RMK A01 T10131121  RH  044%=      5-min Rain = 0
KST2 120317Z 05006KT M01/M12 A3028 RMK A01 T10131121  RH  044%=      5-min Rain = 0
KST2 120318Z 05006KT M01/M12 A3028 RMK A01 T10141121  RH  044%=      5-min Rain = 0
KST2 120319Z 05006KT M01/M12 A3028 RMK A01 T10141120  RH  044%=      5-min Rain = 0
KST2 120320Z 05006KT M01/M12 A3028 RMK A01 T10131119  RH  045%=      5-min Rain = 0
KST2 120321Z 05006KT M01/M12 A3028 RMK A01 T10121118  RH  044%=      5-min Rain = 0
KST2 120322Z 06006KT M01/M12 A3028 RMK A01 T10121119  RH  044%=      5-min Rain = 0
KST2 120323Z 06006KT M01/M12 A3028 RMK A01 T10121120  RH  044%=      5-min Rain = 0
KST2 120324Z 06006KT M01/M12 A3028 RMK A01 T10131121  RH  044%=      5-min Rain = 0
KST2 120325Z 06006KT M01/M12 A3028 RMK A01 T10141122  RH  044%=      5-min Rain = 0
KST2 120326Z 06006KT M01/M12 A3028 RMK A01 T10141122  RH  044%=      5-min Rain = 0
KST2 120327Z 06006KT M02/M12 A3028 RMK A01 T10151122  RH  044%=      5-min Rain = 0
KST2 120328Z 06006KT M02/M12 A3028 RMK A01 T10151123  RH  044%=      5-min Rain = 0
KST2 120329Z 06006KT M02/M12 A3028 RMK A01 T10161124  RH  044%=      5-min Rain = 0
KST2 120330Z 06006KT M02/M13 A3028 RMK A01 T10171125  RH  044%=      5-min Rain = 0
KST2 120331Z 06006KT M02/M13 A3028 RMK A01 T10171125  RH  044%=      5-min Rain = 0
KST2 120332Z 06007KT M02/M13 A3028 RMK A01 T10171125  RH  044%=      5-min Rain = 0
KST2 120333Z 06007KT M02/M12 A3028 RMK A01 T10171124  RH  044%=      5-min Rain = 0
KST2 120334Z 06006KT M02/M13 A3028 RMK A01 T10171125  RH  044%=      5-min Rain = 0
KST2 120335Z 06006KT M02/M13 A3028 RMK A01 T10181126  RH  043%=      5-min Rain = 0
KST2 120336Z 06006KT M02/M13 A3029 RMK A01 T10181126  RH  043%=      5-min Rain = 0
KST2 120337Z 06006KT M02/M13 A3029 RMK A01 T10181126  RH  043%=      5-min Rain = 0
KST2 120338Z 06006KT M02/M13 A3029 RMK A01 T10181126  RH  043%=      5-min Rain = 0
KST2 120339Z 06007KT M02/M13 A3029 RMK A01 T10181127  RH  043%=      5-min Rain = 0
KST2 120340Z 06006KT M02/M13 A3029 RMK A01 T10181127  RH  043%=      5-min Rain = 0
KST2 120341Z 06006KT M02/M13 A3029 RMK A01 T10191127  RH  043%=      5-min Rain = 0
KST2 120342Z 07006KT M02/M13 A3029 RMK A01 T10191128  RH  043%=      5-min Rain = 0
KST2 120343Z 07006KT M02/M13 A3029 RMK A01 T10201128  RH  043%=      5-min Rain = 0
KST2 120344Z 07006KT M02/M13 A3029 RMK A01 T10211129  RH  043%=      5-min Rain = 0
KST2 120345Z 07006KT M02/M13 A3029 RMK A01 T10221130  RH  043%=      5-min Rain = 0
KST2 120346Z 07006KT M02/M13 A3029 RMK A01 T10221130  RH  044%=      5-min Rain = 0
KST2 120347Z 07006KT M02/M13 A3029 RMK A01 T10231130  RH  044%=      5-min Rain = 0
KST2 120348Z 07005KT M02/M13 A3029 RMK A01 T10241130  RH  044%=      5-min Rain = 0
KST2 120349Z 07005KT M02/M13 A3029 RMK A01 T10241130  RH  044%=      5-min Rain = 0
KST2 120350Z 07005KT M02/M13 A3029 RMK A01 T10241130  RH  044%=      5-min Rain = 0
KST2 120351Z 07006KT M03/M13 A3029 RMK A01 T10251131  RH  044%=      5-min Rain = 0
KST2 120352Z 07006KT M03/M13 A3029 RMK A01 T10251131  RH  044%=      5-min Rain = 0
KST2 120353Z 07006KT M03/M13 A3029 RMK A01 T10261132  RH  044%=      5-min Rain = 0
KST2 120354Z 07006KT M03/M13 A3029 RMK A01 T10261133  RH  044%=      5-min Rain = 0
KST2 120355Z 07006KT M03/M13 A3029 RMK A01 T10261133  RH  044%=      5-min Rain = 0
KST2 120356Z 07005KT M03/M13 A3029 RMK A01 T10261133  RH  044%=      5-min Rain = 0
KST2 120357Z 08005KT M03/M13 A3029 RMK A01 T10271133  RH  044%=      5-min Rain = 0
KST2 120358Z 08005KT M03/M13 A3029 RMK A01 T10271133  RH  044%=      5-min Rain = 0
KST2 120359Z 08005KT M03/M13 A3029 RMK A01 T10261133  RH  044%=      5-min Rain = 0
KST2 120400Z 08005KT M03/M13 A3029 RMK A01 T10261133  RH  044%=      5-min Rain = 0
KST2 120401Z 07005KT M03/M13 A3029 RMK A01 T10251131  RH  044%=      5-min Rain = 0
KST2 120402Z 08005KT M03/M13 A3029 RMK A01 T10251130  RH  044%=      5-min Rain = 0
KST2 120403Z 08005KT M02/M13 A3029 RMK A01 T10241131  RH  044%=      5-min Rain = 0
KST2 120404Z 09005KT M02/M13 A3029 RMK A01 T10241131  RH  043%=      5-min Rain = 0
KST2 120405Z 09005KT M02/M13 A3029 RMK A01 T10241132  RH  043%=      5-min Rain = 0
KST2 120406Z 09004KT M02/M13 A3029 RMK A01 T10241131  RH  044%=      5-min Rain = 0
KST2 120407Z 09005KT M03/M13 A3029 RMK A01 T10251132  RH  043%=      5-min Rain = 0
KST2 120408Z 09005KT M03/M13 A3029 RMK A01 T10251132  RH  043%=      5-min Rain = 0
KST2 120409Z 09005KT M03/M13 A3029 RMK A01 T10261133  RH  044%=      5-min Rain = 0
KST2 120410Z 09005KT M03/M13 A3029 RMK A01 T10251131  RH  044%=      5-min Rain = 0
KST2 120411Z 08005KT M03/M13 A3029 RMK A01 T10261132  RH  044%=      5-min Rain = 0
KST2 120412Z 08005KT M03/M13 A3029 RMK A01 T10261132  RH  044%=      5-min Rain = 0
KST2 120413Z 08005KT M03/M13 A3029 RMK A01 T10261132  RH  044%=      5-min Rain = 0
KST2 120414Z 08005KT M03/M13 A3029 RMK A01 T10261132  RH  044%=      5-min Rain = 0
KST2 120415Z 08005KT M03/M13 A303 RMK A01 T10261131  RH  044%=      5-min Rain = 0
KST2 120416Z 09005KT M03/M13 A303 RMK A01 T10261132  RH  044%=      5-min Rain = 0
KST2 120417Z 09005KT M03/M13 A303 RMK A01 T10261132  RH  044%=      5-min Rain = 0
KST2 120418Z 08005KT M03/M13 A303 RMK A01 T10261132  RH  044%=      5-min Rain = 0
KST2 120419Z 08005KT M03/M13 A303 RMK A01 T10261132  RH  044%=      5-min Rain = 0
KST2 120420Z 08005KT M03/M13 A303 RMK A01 T10261131  RH  044%=      5-min Rain = 0
KST2 120421Z 09005KT M03/M13 A303 RMK A01 T10261131  RH  044%=      5-min Rain = 0
KST2 120422Z 09004KT M03/M13 A303 RMK A01 T10261131  RH  044%=      5-min Rain = 0
KST2 120423Z 10004KT M03/M13 A303 RMK A01 T10261132  RH  044%=      5-min Rain = 0
KST2 120424Z 10004KT M03/M13 A303 RMK A01 T10261132  RH  044%=      5-min Rain = 0
KST2 120425Z 10004KT M03/M13 A303 RMK A01 T10261133  RH  044%=      5-min Rain = 0
KST2 120426Z 10004KT M03/M13 A303 RMK A01 T10271133  RH  044%=      5-min Rain = 0
KST2 120427Z 11003KT M03/M14 A303 RMK A01 T10281136  RH  043%=      5-min Rain = 0
KST2 120428Z 11003KT M03/M14 A303 RMK A01 T10281137  RH  043%=      5-min Rain = 0
KST2 120429Z 10003KT M03/M14 A303 RMK A01 T10291138  RH  043%=      5-min Rain = 0
KST2 120430Z 10003KT M03/M14 A303 RMK A01 T10291136  RH  043%=      5-min Rain = 0
KST2 120431Z 10003KT M03/M14 A303 RMK A01 T10291135  RH  044%=      5-min Rain = 0
KST2 120432Z 09003KT M03/M13 A303 RMK A01 T10291133  RH  044%=      5-min Rain = 0
KST2 120433Z 09004KT M03/M13 A303 RMK A01 T10281133  RH  045%=      5-min Rain = 0
KST2 120434Z 08004KT M03/M13 A303 RMK A01 T10291133  RH  044%=      5-min Rain = 0
KST2 120435Z 08004KT M03/M13 A303 RMK A01 T10281133  RH  044%=      5-min Rain = 0
KST2 120436Z 08004KT M03/M13 A303 RMK A01 T10281132  RH  044%=      5-min Rain = 0
KST2 120437Z 08004KT M03/M13 A303 RMK A01 T10271131  RH  045%=      5-min Rain = 0
KST2 120438Z 08004KT M03/M13 A303 RMK A01 T10271130  RH  045%=      5-min Rain = 0
KST2 120439Z 07004KT M03/M13 A303 RMK A01 T10261128  RH  045%=      5-min Rain = 0
KST2 120440Z 07004KT M03/M13 A303 RMK A01 T10261128  RH  045%=      5-min Rain = 0
KST2 120441Z 07004KT M03/M13 A303 RMK A01 T10251128  RH  045%=      5-min Rain = 0
KST2 120442Z 07005KT M02/M13 A303 RMK A01 T10241127  RH  045%=      5-min Rain = 0
KST2 120443Z 07005KT M02/M13 A303 RMK A01 T10241127  RH  045%=      5-min Rain = 0
KST2 120444Z 07005KT M02/M13 A303 RMK A01 T10241128  RH  045%=      5-min Rain = 0
KST2 120445Z 07005KT M02/M13 A303 RMK A01 T10241129  RH  045%=      5-min Rain = 0
KST2 120446Z 07005KT M02/M13 A303 RMK A01 T10241128  RH  045%=      5-min Rain = 0
KST2 120447Z 07005KT M02/M13 A303 RMK A01 T10241128  RH  045%=      5-min Rain = 0
KST2 120448Z 07005KT M02/M13 A303 RMK A01 T10241127  RH  045%=      5-min Rain = 0
KST2 120449Z 07005KT M02/M13 A303 RMK A01 T10241128  RH  045%=      5-min Rain = 0
KST2 120450Z 07005KT M02/M13 A303 RMK A01 T10241127  RH  045%=      5-min Rain = 0
KST2 120451Z 07005KT M02/M13 A303 RMK A01 T10241127  RH  045%=      5-min Rain = 0
KST2 120452Z 07005KT M02/M13 A303 RMK A01 T10231126  RH  045%=      5-min Rain = 0
KST2 120453Z 07005KT M02/M13 A303 RMK A01 T10231126  RH  045%=      5-min Rain = 0
KST2 120454Z 07005KT M02/M13 A303 RMK A01 T10221126  RH  045%=      5-min Rain = 0
KST2 120455Z 06005KT M02/M13 A303 RMK A01 T10221126  RH  045%=      5-min Rain = 0
KST2 120456Z 06006KT M02/M13 A303 RMK A01 T10211126  RH  045%=      5-min Rain = 0
KST2 120457Z 06006KT M02/M13 A303 RMK A01 T10201125  RH  045%=      5-min Rain = 0
KST2 120458Z 05006KT M02/M13 A303 RMK A01 T10201125  RH  045%=      5-min Rain = 0
KST2 120459Z 05006KT M02/M13 A303 RMK A01 T10191125  RH  044%=      5-min Rain = 0
KST2 120500Z 06006KT M02/M13 A303 RMK A01 T10201126  RH  044%=      5-min Rain = 0
KST2 120501Z 06006KT M02/M13 A303 RMK A01 T10201127  RH  044%=      5-min Rain = 0
KST2 120502Z 06006KT M02/M13 A303 RMK A01 T10211127  RH  044%=      5-min Rain = 0
KST2 120503Z 07006KT M02/M13 A303 RMK A01 T10221128  RH  044%=      5-min Rain = 0
KST2 120504Z 07006KT M02/M13 A303 RMK A01 T10231129  RH  044%=      5-min Rain = 0
KST2 120505Z 07006KT M02/M13 A303 RMK A01 T10231129  RH  044%=      5-min Rain = 0
KST2 120506Z 07006KT M02/M13 A303 RMK A01 T10241130  RH  044%=      5-min Rain = 0
KST2 120507Z 07006KT M02/M13 A303 RMK A01 T10241130  RH  044%=      5-min Rain = 0
KST2 120508Z 07006KT M03/M13 A303 RMK A01 T10251129  RH  044%=      5-min Rain = 0
KST2 120509Z 10006KT M03/M13 A303 RMK A01 T10261130  RH  045%=      5-min Rain = 0
KST2 120510Z 13006KT M03/M14 A303 RMK A01 T10281137  RH  043%=      5-min Rain = 0
KST2 120511Z 11006KT M03/M14 A303 RMK A01 T10321142  RH  042%=      5-min Rain = 0
KST2 120512Z 11006KT M03/M14 A303 RMK A01 T10311138  RH  043%=      5-min Rain = 0
KST2 120513Z 12005KT M03/M14 A303 RMK A01 T10311141  RH  042%=      5-min Rain = 0
KST2 120514Z 13005KT M03/M14 A303 RMK A01 T10331143  RH  042%=      5-min Rain = 0
KST2 120515Z 11004KT M03/M14 A303 RMK A01 T10341141  RH  043%=      5-min Rain = 0
KST2 120516Z 10004KT M03/M14 A303 RMK A01 T10341139  RH  044%=      5-min Rain = 0
KST2 120517Z 10005KT M03/M14 A303 RMK A01 T10331137  RH  045%=      5-min Rain = 0
KST2 120518Z 10004KT M03/M14 A303 RMK A01 T10331135  RH  045%=      5-min Rain = 0
KST2 120519Z 09004KT M03/M13 A303 RMK A01 T10321134  RH  045%=      5-min Rain = 0
KST2 120520Z 09004KT M03/M14 A303 RMK A01 T10331136  RH  045%=      5-min Rain = 0
KST2 120521Z 08004KT M03/M14 A303 RMK A01 T10331136  RH  045%=      5-min Rain = 0
KST2 120522Z 08004KT M03/M13 A303 RMK A01 T10321134  RH  045%=      5-min Rain = 0
KST2 120523Z 07004KT M03/M13 A303 RMK A01 T10321133  RH  045%=      5-min Rain = 0
KST2 120524Z 08004KT M03/M13 A303 RMK A01 T10311133  RH  045%=      5-min Rain = 0
KST2 120525Z 07004KT M03/M13 A303 RMK A01 T10311133  RH  045%=      5-min Rain = 0
KST2 120526Z 08004KT M03/M13 A303 RMK A01 T10311132  RH  046%=      5-min Rain = 0
KST2 120527Z 08004KT M03/M13 A303 RMK A01 T10301131  RH  046%=      5-min Rain = 0
KST2 120528Z 09004KT M03/M13 A303 RMK A01 T10301131  RH  046%=      5-min Rain = 0
KST2 120529Z 10004KT M03/M13 A303 RMK A01 T10301132  RH  045%=      5-min Rain = 0
KST2 120530Z 11004KT M03/M13 A303 RMK A01 T10301134  RH  044%=      5-min Rain = 0
KST2 120531Z 11004KT M03/M13 A303 RMK A01 T10311134  RH  045%=      5-min Rain = 0
KST2 120532Z 11004KT M03/M13 A303 RMK A01 T10311132  RH  046%=      5-min Rain = 0
KST2 120533Z 11004KT M03/M13 A303 RMK A01 T10311131  RH  046%=      5-min Rain = 0
KST2 120534Z 14004KT M03/M13 A303 RMK A01 T10311134  RH  045%=      5-min Rain = 0
KST2 120535Z 13004KT M03/M13 A303 RMK A01 T10321134  RH  045%=      5-min Rain = 0
KST2 120536Z 12004KT M03/M13 A303 RMK A01 T10321132  RH  046%=      5-min Rain = 0
KST2 120537Z 13004KT M03/M13 A303 RMK A01 T10331134  RH  046%=      5-min Rain = 0
KST2 120538Z 14005KT M03/M13 A303 RMK A01 T10331134  RH  046%=      5-min Rain = 0
KST2 120539Z 14005KT M03/M14 A303 RMK A01 T10341135  RH  045%=      5-min Rain = 0
KST2 120540Z 14006KT M04/M14 A303 RMK A01 T10371141  RH  044%=      5-min Rain = 0
KST2 120541Z 14006KT M04/M14 A303 RMK A01 T10401143  RH  045%=      5-min Rain = 0
KST2 120542Z 13006KT M04/M14 A303 RMK A01 T10411142  RH  045%=      5-min Rain = 0
KST2 120543Z 13005KT M04/M14 A303 RMK A01 T10421142  RH  046%=      5-min Rain = 0
KST2 120544Z 13005KT M04/M14 A303 RMK A01 T10421142  RH  046%=      5-min Rain = 0
KST2 120545Z 12005KT M04/M14 A303 RMK A01 T10421138  RH  047%=      5-min Rain = 0
KST2 120546Z 12005KT M04/M13 A303 RMK A01 T10411134  RH  048%=      5-min Rain = 0
KST2 120547Z 12005KT M04/M13 A303 RMK A01 T10401134  RH  048%=      5-min Rain = 0
KST2 120548Z 12005KT M04/M14 A303 RMK A01 T10401138  RH  047%=      5-min Rain = 0
KST2 120549Z 12005KT M04/M14 A3031 RMK A01 T10411139  RH  046%=      5-min Rain = 0
KST2 120550Z 12004KT M04/M14 A3031 RMK A01 T10411138  RH  047%=      5-min Rain = 0
KST2 120551Z 12004KT M04/M14 A3031 RMK A01 T10411136  RH  047%=      5-min Rain = 0
KST2 120552Z 12004KT M04/M14 A303 RMK A01 T10411135  RH  048%=      5-min Rain = 0
KST2 120553Z 11004KT M04/M14 A303 RMK A01 T10411135  RH  048%=      5-min Rain = 0
KST2 120554Z 12004KT M04/M14 A303 RMK A01 T10411136  RH  048%=      5-min Rain = 0
KST2 120555Z 12004KT M04/M14 A303 RMK A01 T10411135  RH  048%=      5-min Rain = 0
KST2 120556Z 12004KT M04/M13 A3031 RMK A01 T10411133  RH  049%=      5-min Rain = 0
KST2 120557Z 12004KT M04/M13 A3031 RMK A01 T10411132  RH  049%=      5-min Rain = 0
KST2 120558Z 12004KT M04/M13 A3031 RMK A01 T10401131  RH  049%=      5-min Rain = 0
KST2 120559Z 12004KT M04/M13 A3031 RMK A01 T10401132  RH  049%=      5-min Rain = 0

Page generated in 0.1506 seconds.